Darstellungsparameter: Aktuell verwendete Einstellungen:
Skalierung der Graphiken ... ?
xyx+y,   Skalierungsfaktor:      Skalierung: Modus: x, Faktor: 1
Darstellungszeitraum ... ?
Vom - - bis: - -   Zeitraum: 26.11.2014 - 01.12.2014
Min/Max/Avg-Anzeige ... ?
Zeige MMA aktuell
Zeige MMA Monat
Zeige MMA alles
Zeige --A aktuell
Zeige --A Monat
Zeige --A alles
Keine MMA-Anzeige
MMA:
Keine MMA-Graphiken
MMA-Basis: 26.11.2014 - 01.12.2014
Quicknavigation für Darstellung... ?
Tage:      1T, 2T, 3T, 5T -1T -2T -3T -5T +1T +2T +3T +5T
Wochen: 1W, 2W, 3W -1W -2W -3W +1W +2W +3W
Monate: 1M, 3M, 6M -1M -3M -6M +1M +3M +6M
Jahre:    1J, 3J, 5J, 10J -1J -3J -5J -10J +1J +3J +5J +10J
Nutze für die Darstellung ... ?
Originaldaten oder Mittelwerte auf ...
Stundenbasis Tagesbasis Wochenbasis
Monatsbasis Jahresbasis      Datenbasis: Original-Daten
Darstellen als:
Statistik (Auto) Statistik J:M      Darstellung:
Zur Graphik,    zurück zur Übersicht aller Sensoren.
 
Tabellarische Datenbersicht: ?
 
Sensor: Nr:Datum:Temp:Abs-Feuchte:Windchill:Wind:
Aussen-T/F 1 26-11-2014 00:00:00 5.4 C 6.35 g/m*3 4.06 C 6.4 km/h
2 26-11-2014 00:05:00 5.4 C 6.35 g/m*3 5.4 C 1.6 km/h
3 26-11-2014 00:10:00 5.4 C 6.35 g/m*3 5.4 C 4.8 km/h
4 26-11-2014 00:15:00 5.4 C 6.35 g/m*3 5.4 C 3.2 km/h
5 26-11-2014 00:20:00 5.4 C 6.35 g/m*3 4.06 C 6.4 km/h
6 26-11-2014 00:25:00 5.4 C 6.35 g/m*3 5.4 C 4.8 km/h
7 26-11-2014 00:30:00 5.4 C 6.35 g/m*3 5.4 C 4.8 km/h
8 26-11-2014 00:35:00 5.4 C 6.28 g/m*3 5.4 C 3.2 km/h
9 26-11-2014 00:40:00 5.3 C 6.31 g/m*3 5.3 C 3.2 km/h
10 26-11-2014 00:45:00 5.3 C 6.31 g/m*3 5.3 C 4.8 km/h
11 26-11-2014 00:50:00 5.3 C 6.31 g/m*3 5.3 C 1.6 km/h
12 26-11-2014 00:55:00 5.3 C 6.31 g/m*3 5.3 C 3.2 km/h
13 26-11-2014 01:00:00 5.3 C 6.31 g/m*3 5.3 C 0 km/h
14 26-11-2014 01:05:00 5.3 C 6.31 g/m*3 5.3 C 1.6 km/h
15 26-11-2014 01:10:00 5.3 C 6.31 g/m*3 5.3 C 3.2 km/h
16 26-11-2014 01:15:00 5.3 C 6.31 g/m*3 5.3 C 0 km/h
17 26-11-2014 01:20:00 5.2 C 6.27 g/m*3 5.2 C 4.8 km/h
18 26-11-2014 01:25:00 5.2 C 6.27 g/m*3 3.82 C 6.4 km/h
19 26-11-2014 01:30:00 5.2 C 6.2 g/m*3 3.82 C 6.4 km/h
20 26-11-2014 01:35:00 5.2 C 6.27 g/m*3 5.2 C 1.6 km/h
21 26-11-2014 01:40:00 5.2 C 6.27 g/m*3 5.2 C 1.6 km/h
22 26-11-2014 01:45:00 5.2 C 6.27 g/m*3 5.2 C 3.2 km/h
23 26-11-2014 01:50:00 5.1 C 6.22 g/m*3 5.1 C 3.2 km/h
24 26-11-2014 01:55:00 5.1 C 6.22 g/m*3 5.1 C 3.2 km/h
25 26-11-2014 02:00:00 5.1 C 6.22 g/m*3 5.1 C 1.6 km/h
Sensor: Nr:Datum:Temp:Abs-Feuchte:Windchill:Wind:
Aussen-T/F 26 26-11-2014 02:05:00 5 C 6.18 g/m*3 5 C 3.2 km/h
27 26-11-2014 02:10:00 4.9 C 6.14 g/m*3 4.9 C 0 km/h
28 26-11-2014 02:15:00 4.9 C 6.14 g/m*3 4.9 C 0 km/h
29 26-11-2014 02:20:00 4.9 C 6.14 g/m*3 4.9 C 1.6 km/h
30 26-11-2014 02:25:00 4.9 C 6.14 g/m*3 4.9 C 1.6 km/h
31 26-11-2014 02:30:00 4.9 C 6.14 g/m*3 4.9 C 3.2 km/h
32 26-11-2014 02:35:00 4.8 C 6.1 g/m*3 4.8 C 4.8 km/h
33 26-11-2014 02:40:00 4.8 C 6.1 g/m*3 4.8 C 1.6 km/h
34 26-11-2014 02:45:00 4.8 C 6.1 g/m*3 4.8 C 1.6 km/h
35 26-11-2014 02:50:00 4.8 C 6.1 g/m*3 4.8 C 4.8 km/h
36 26-11-2014 02:55:00 4.8 C 6.1 g/m*3 4.8 C 0 km/h
37 26-11-2014 03:00:00 4.8 C 6.1 g/m*3 4.8 C 1.6 km/h
38 26-11-2014 03:05:00 4.8 C 6.1 g/m*3 4.8 C 3.2 km/h
39 26-11-2014 03:10:00 4.8 C 6.1 g/m*3 4.8 C 4.8 km/h
40 26-11-2014 03:15:00 4.8 C 6.1 g/m*3 4.8 C 4.8 km/h
41 26-11-2014 03:20:00 4.7 C 6 g/m*3 4.7 C 1.6 km/h
42 26-11-2014 03:25:00 4.7 C 6 g/m*3 4.7 C 1.6 km/h
43 26-11-2014 03:30:00 4.7 C 6 g/m*3 4.7 C 0 km/h
44 26-11-2014 03:35:00 4.7 C 6 g/m*3 4.7 C 0 km/h
45 26-11-2014 03:40:00 4.7 C 6.06 g/m*3 4.7 C 3.2 km/h
46 26-11-2014 03:45:00 4.7 C 6 g/m*3 4.7 C 4.8 km/h
47 26-11-2014 03:50:00 4.7 C 6 g/m*3 4.7 C 0 km/h
48 26-11-2014 03:55:00 4.7 C 6 g/m*3 4.7 C 3.2 km/h
49 26-11-2014 04:00:00 4.7 C 6 g/m*3 4.7 C 3.2 km/h
50 26-11-2014 04:05:00 4.7 C 6 g/m*3 4.7 C 3.2 km/h
Sensor: Nr:Datum:Temp:Abs-Feuchte:Windchill:Wind:
Aussen-T/F 51 26-11-2014 04:10:00 4.6 C 5.96 g/m*3 3.13 C 6.4 km/h
52 26-11-2014 04:15:00 4.6 C 5.96 g/m*3 4.6 C 4.8 km/h
53 26-11-2014 04:20:00 4.6 C 5.96 g/m*3 3.13 C 6.4 km/h
54 26-11-2014 04:25:00 4.6 C 5.96 g/m*3 2.25 C 9.7 km/h
55 26-11-2014 04:30:00 4.6 C 5.96 g/m*3 2.25 C 9.7 km/h
56 26-11-2014 04:35:00 4.6 C 5.96 g/m*3 4.6 C 0 km/h
57 26-11-2014 04:40:00 4.6 C 5.96 g/m*3 4.6 C 1.6 km/h
58 26-11-2014 04:45:00 4.6 C 5.96 g/m*3 3.13 C 6.4 km/h
59 26-11-2014 04:50:00 4.5 C 5.92 g/m*3 3.02 C 6.4 km/h
60 26-11-2014 04:55:00 4.5 C 5.92 g/m*3 4.5 C 3.2 km/h
61 26-11-2014 05:00:00 4.5 C 5.92 g/m*3 4.5 C 1.6 km/h
62 26-11-2014 05:05:00 4.4 C 5.88 g/m*3 4.4 C 0 km/h
63 26-11-2014 05:10:00 4.4 C 5.88 g/m*3 4.4 C 0 km/h
64 26-11-2014 05:15:00 4.4 C 5.88 g/m*3 4.4 C 1.6 km/h
65 26-11-2014 05:20:00 4.4 C 5.88 g/m*3 4.4 C 0 km/h
66 26-11-2014 05:25:00 4.4 C 5.88 g/m*3 4.4 C 0 km/h
67 26-11-2014 05:30:00 4.4 C 5.88 g/m*3 4.4 C 3.2 km/h
68 26-11-2014 05:35:00 4.4 C 5.94 g/m*3 4.4 C 3.2 km/h
69 26-11-2014 05:40:00 4.4 C 5.88 g/m*3 4.4 C 3.2 km/h
70 26-11-2014 05:45:00 4.4 C 5.88 g/m*3 4.4 C 3.2 km/h
71 26-11-2014 05:50:00 4.4 C 5.88 g/m*3 4.4 C 4.8 km/h
72 26-11-2014 05:55:00 4.4 C 5.88 g/m*3 4.4 C 0 km/h
73 26-11-2014 06:00:00 4.4 C 5.88 g/m*3 4.4 C 1.6 km/h
74 26-11-2014 06:05:00 4.4 C 5.88 g/m*3 4.4 C 1.6 km/h
75 26-11-2014 06:10:00 4.4 C 5.88 g/m*3 4.4 C 0 km/h
Sensor: Nr:Datum:Temp:Abs-Feuchte:Windchill:Wind:
Aussen-T/F 76 26-11-2014 06:15:00 4.4 C 5.94 g/m*3 4.4 C 0 km/h
77 26-11-2014 06:20:00 4.4 C 5.88 g/m*3 4.4 C 0 km/h
78 26-11-2014 06:25:00 4.4 C 5.94 g/m*3 4.4 C 0 km/h
79 26-11-2014 06:30:00 4.4 C 5.94 g/m*3 4.4 C 0 km/h
80 26-11-2014 06:35:00 4.3 C 5.9 g/m*3 4.3 C 0 km/h
81 26-11-2014 06:40:00 4.3 C 5.9 g/m*3 4.3 C 0 km/h
82 26-11-2014 06:45:00 4.3 C 5.9 g/m*3 4.3 C 0 km/h
83 26-11-2014 06:50:00 4.3 C 5.9 g/m*3 4.3 C 0 km/h
84 26-11-2014 06:55:00 4.3 C 5.9 g/m*3 4.3 C 3.2 km/h
85 26-11-2014 07:00:00 4.3 C 5.84 g/m*3 4.3 C 3.2 km/h
86 26-11-2014 07:05:00 4.3 C 5.84 g/m*3 4.3 C 0 km/h
87 26-11-2014 07:10:00 4.3 C 5.84 g/m*3 4.3 C 1.6 km/h
88 26-11-2014 07:15:00 4.4 C 5.88 g/m*3 4.4 C 0 km/h
89 26-11-2014 07:20:00 4.4 C 5.88 g/m*3 4.4 C 1.6 km/h
90 26-11-2014 07:25:00 4.4 C 5.88 g/m*3 4.4 C 0 km/h
91 26-11-2014 07:30:00 4.4 C 5.88 g/m*3 4.4 C 0 km/h
92 26-11-2014 07:35:00 4.4 C 5.94 g/m*3 4.4 C 0 km/h
93 26-11-2014 07:40:00 4.4 C 5.94 g/m*3 4.4 C 0 km/h
94 26-11-2014 07:45:00 4.3 C 5.9 g/m*3 4.3 C 3.2 km/h
95 26-11-2014 07:50:00 4.3 C 5.84 g/m*3 4.3 C 1.6 km/h
96 26-11-2014 07:55:00 4.4 C 5.94 g/m*3 4.4 C 0 km/h
97 26-11-2014 08:00:00 4.4 C 5.94 g/m*3 4.4 C 1.6 km/h
98 26-11-2014 08:05:00 4.4 C 5.88 g/m*3 4.4 C 3.2 km/h
99 26-11-2014 08:10:00 4.4 C 5.88 g/m*3 4.4 C 1.6 km/h
100 26-11-2014 08:15:00 4.4 C 5.88 g/m*3 4.4 C 0 km/h
Sensor: Nr:Datum:Temp:Abs-Feuchte:Windchill:Wind:
Aussen-T/F 101 26-11-2014 08:20:00 4.4 C 5.88 g/m*3 4.4 C 3.2 km/h
102 26-11-2014 08:25:00 4.4 C 5.88 g/m*3 4.4 C 1.6 km/h
103 26-11-2014 08:30:00 4.4 C 5.88 g/m*3 4.4 C 0 km/h
104 26-11-2014 08:35:00 4.4 C 5.88 g/m*3 4.4 C 1.6 km/h
105 26-11-2014 08:40:00 4.4 C 5.88 g/m*3 4.4 C 0 km/h
106 26-11-2014 08:45:00 4.4 C 5.88 g/m*3 4.4 C 1.6 km/h
107 26-11-2014 08:50:00 4.4 C 5.88 g/m*3 2.9 C 6.4 km/h
108 26-11-2014 08:55:00 4.4 C 5.88 g/m*3 4.4 C 3.2 km/h
109 26-11-2014 09:00:00 4.5 C 5.85 g/m*3 4.5 C 3.2 km/h
110 26-11-2014 09:05:00 4.5 C 5.85 g/m*3 4.5 C 4.8 km/h
111 26-11-2014 09:10:00 4.6 C 5.89 g/m*3 4.6 C 3.2 km/h
112 26-11-2014 09:15:00 4.6 C 5.82 g/m*3 4.6 C 3.2 km/h
113 26-11-2014 09:20:00 4.6 C 5.89 g/m*3 4.6 C 1.6 km/h
114 26-11-2014 09:25:00 4.6 C 5.89 g/m*3 4.6 C 1.6 km/h
115 26-11-2014 09:30:00 4.6 C 5.89 g/m*3 3.13 C 6.4 km/h
116 26-11-2014 11:35:00 5.7 C 6.05 g/m*3 5.7 C 3.2 km/h
117 26-11-2014 11:40:00 5.7 C 6.05 g/m*3 5.7 C 1.6 km/h
118 26-11-2014 11:45:00 5.7 C 6.05 g/m*3 5.7 C 3.2 km/h
119 26-11-2014 11:50:00 5.7 C 5.98 g/m*3 5.7 C 3.2 km/h
120 26-11-2014 11:55:00 5.7 C 6.05 g/m*3 5.7 C 3.2 km/h
121 26-11-2014 12:00:00 5.7 C 6.05 g/m*3 5.7 C 3.2 km/h
122 26-11-2014 12:05:00 5.7 C 6.05 g/m*3 4.4 C 6.4 km/h
123 26-11-2014 12:10:00 5.7 C 6.05 g/m*3 5.7 C 1.6 km/h
124 26-11-2014 12:15:00 5.7 C 6.12 g/m*3 5.7 C 4.8 km/h
125 26-11-2014 12:20:00 5.7 C 6.19 g/m*3 5.7 C 4.8 km/h
Sensor: Nr:Datum:Temp:Abs-Feuchte:Windchill:Wind:
Aussen-T/F 126 26-11-2014 12:25:00 5.7 C 6.33 g/m*3 5.7 C 3.2 km/h
127 26-11-2014 12:30:00 5.6 C 6.22 g/m*3 5.6 C 1.6 km/h
128 26-11-2014 12:35:00 5.6 C 6.29 g/m*3 5.6 C 0 km/h
129 26-11-2014 12:40:00 5.6 C 6.29 g/m*3 5.6 C 0 km/h
130 26-11-2014 12:45:00 5.6 C 6.29 g/m*3 5.6 C 3.2 km/h
131 26-11-2014 12:50:00 5.7 C 6.4 g/m*3 5.7 C 0 km/h
132 26-11-2014 12:55:00 5.7 C 6.33 g/m*3 5.7 C 1.6 km/h
133 26-11-2014 13:00:00 5.8 C 6.38 g/m*3 5.8 C 3.2 km/h
134 26-11-2014 13:05:00 5.8 C 6.38 g/m*3 5.8 C 3.2 km/h
135 26-11-2014 13:10:00 5.8 C 6.38 g/m*3 5.8 C 4.8 km/h
136 26-11-2014 13:15:00 5.9 C 6.42 g/m*3 5.9 C 4.8 km/h
137 26-11-2014 13:20:00 5.9 C 6.42 g/m*3 5.9 C 1.6 km/h
138 26-11-2014 13:25:00 5.9 C 6.42 g/m*3 5.9 C 3.2 km/h
139 26-11-2014 13:30:00 5.9 C 6.42 g/m*3 5.9 C 4.8 km/h
140 26-11-2014 13:35:00 5.9 C 6.42 g/m*3 5.9 C 3.2 km/h
141 26-11-2014 13:40:00 5.9 C 6.42 g/m*3 4.63 C 6.4 km/h
142 26-11-2014 13:45:00 5.9 C 6.42 g/m*3 5.9 C 1.6 km/h
143 26-11-2014 13:50:00 5.9 C 6.49 g/m*3 5.9 C 3.2 km/h
144 26-11-2014 13:55:00 5.9 C 6.35 g/m*3 5.9 C 3.2 km/h
145 26-11-2014 14:00:00 5.9 C 6.42 g/m*3 5.9 C 1.6 km/h
146 26-11-2014 14:05:00 5.9 C 6.42 g/m*3 5.9 C 1.6 km/h
147 26-11-2014 14:10:00 5.9 C 6.42 g/m*3 5.9 C 3.2 km/h
148 26-11-2014 14:15:00 5.9 C 6.42 g/m*3 5.9 C 3.2 km/h
149 26-11-2014 14:20:00 5.9 C 6.42 g/m*3 5.9 C 3.2 km/h
150 26-11-2014 14:25:00 5.9 C 6.35 g/m*3 5.9 C 3.2 km/h
Sensor: Nr:Datum:Temp:Abs-Feuchte:Windchill:Wind:
Aussen-T/F 151 26-11-2014 14:30:00 5.9 C 6.35 g/m*3 5.9 C 3.2 km/h
152 26-11-2014 14:35:00 5.9 C 6.35 g/m*3 5.9 C 1.6 km/h
153 26-11-2014 14:40:00 6 C 6.46 g/m*3 6 C 1.6 km/h
154 26-11-2014 14:45:00 6.1 C 6.5 g/m*3 6.1 C 1.6 km/h
155 26-11-2014 14:50:00 6.1 C 6.5 g/m*3 6.1 C 4.8 km/h
156 26-11-2014 14:55:00 6.2 C 6.47 g/m*3 6.2 C 1.6 km/h
157 26-11-2014 15:00:00 6.2 C 6.47 g/m*3 6.2 C 3.2 km/h
158 26-11-2014 15:05:00 6.2 C 6.47 g/m*3 6.2 C 4.8 km/h
159 26-11-2014 15:10:00 6.2 C 6.47 g/m*3 6.2 C 3.2 km/h
160 26-11-2014 15:15:00 6.2 C 6.47 g/m*3 6.2 C 3.2 km/h
161 26-11-2014 15:20:00 6.2 C 6.47 g/m*3 6.2 C 3.2 km/h
162 26-11-2014 15:25:00 6.2 C 6.47 g/m*3 6.2 C 4.8 km/h
163 26-11-2014 15:30:00 6.2 C 6.47 g/m*3 6.2 C 3.2 km/h
164 26-11-2014 15:35:00 6.1 C 6.43 g/m*3 6.1 C 3.2 km/h
165 26-11-2014 15:40:00 6.1 C 6.5 g/m*3 4.86 C 6.4 km/h
166 26-11-2014 15:45:00 6.1 C 6.43 g/m*3 6.1 C 3.2 km/h
167 26-11-2014 15:50:00 6.1 C 6.43 g/m*3 6.1 C 1.6 km/h
168 26-11-2014 15:55:00 6 C 6.39 g/m*3 6 C 1.6 km/h
169 26-11-2014 16:00:00 6 C 6.39 g/m*3 6 C 0 km/h
170 26-11-2014 16:05:00 6 C 6.39 g/m*3 6 C 1.6 km/h
171 26-11-2014 16:10:00 6 C 6.46 g/m*3 6 C 1.6 km/h
172 26-11-2014 16:15:00 6 C 6.46 g/m*3 6 C 1.6 km/h
173 26-11-2014 16:20:00 6 C 6.46 g/m*3 6 C 1.6 km/h
174 26-11-2014 16:25:00 5.9 C 6.42 g/m*3 5.9 C 3.2 km/h
175 26-11-2014 16:30:00 5.9 C 6.42 g/m*3 5.9 C 3.2 km/h
Sensor: Nr:Datum:Temp:Abs-Feuchte:Windchill:Wind:
Aussen-T/F 176 26-11-2014 16:35:00 5.9 C 6.35 g/m*3 5.9 C 1.6 km/h
177 26-11-2014 16:40:00 5.9 C 6.42 g/m*3 5.9 C 3.2 km/h
178 26-11-2014 16:45:00 5.9 C 6.35 g/m*3 5.9 C 0 km/h
179 26-11-2014 16:50:00 5.9 C 6.35 g/m*3 5.9 C 1.6 km/h
180 26-11-2014 16:55:00 5.9 C 6.42 g/m*3 5.9 C 1.6 km/h
181 26-11-2014 17:00:00 5.9 C 6.35 g/m*3 5.9 C 3.2 km/h
182 26-11-2014 17:05:00 5.9 C 6.42 g/m*3 5.9 C 1.6 km/h
183 26-11-2014 17:10:00 5.9 C 6.42 g/m*3 5.9 C 1.6 km/h
184 26-11-2014 17:15:00 5.8 C 6.38 g/m*3 5.8 C 0 km/h
185 26-11-2014 17:20:00 5.8 C 6.38 g/m*3 5.8 C 1.6 km/h
186 26-11-2014 17:25:00 5.8 C 6.3 g/m*3 5.8 C 1.6 km/h
187 26-11-2014 17:30:00 5.8 C 6.23 g/m*3 5.8 C 3.2 km/h
188 26-11-2014 17:35:00 5.9 C 6.35 g/m*3 5.9 C 3.2 km/h
189 26-11-2014 17:40:00 5.9 C 6.35 g/m*3 5.9 C 3.2 km/h
190 26-11-2014 17:45:00 5.9 C 6.35 g/m*3 5.9 C 4.8 km/h
191 26-11-2014 17:50:00 5.8 C 6.23 g/m*3 5.8 C 0 km/h
192 26-11-2014 17:55:00 5.9 C 6.35 g/m*3 5.9 C 0 km/h
193 26-11-2014 18:00:00 5.8 C 6.3 g/m*3 5.8 C 1.6 km/h
194 26-11-2014 18:05:00 5.8 C 6.3 g/m*3 5.8 C 1.6 km/h
195 26-11-2014 18:10:00 5.8 C 6.3 g/m*3 5.8 C 0 km/h
196 26-11-2014 18:15:00 5.8 C 6.3 g/m*3 5.8 C 0 km/h
197 26-11-2014 18:20:00 5.8 C 6.3 g/m*3 5.8 C 0 km/h
198 26-11-2014 18:25:00 5.8 C 6.3 g/m*3 5.8 C 1.6 km/h
199 26-11-2014 18:30:00 5.8 C 6.38 g/m*3 5.8 C 0 km/h
200 26-11-2014 18:35:00 5.7 C 6.33 g/m*3 5.7 C 0 km/h
Sensor: Nr:Datum:Temp:Abs-Feuchte:Windchill:Wind:
Aussen-T/F 201 26-11-2014 18:40:00 5.7 C 6.26 g/m*3 5.7 C 3.2 km/h
202 26-11-2014 18:45:00 5.7 C 6.26 g/m*3 5.7 C 3.2 km/h
203 26-11-2014 18:50:00 5.7 C 6.33 g/m*3 5.7 C 0 km/h
204 26-11-2014 18:55:00 5.7 C 6.26 g/m*3 5.7 C 0 km/h
205 26-11-2014 19:00:00 5.7 C 6.33 g/m*3 5.7 C 0 km/h
206 26-11-2014 19:05:00 5.7 C 6.4 g/m*3 5.7 C 0 km/h
207 26-11-2014 19:10:00 5.7 C 6.4 g/m*3 5.7 C 0 km/h
208 26-11-2014 19:15:00 5.7 C 6.33 g/m*3 5.7 C 0 km/h
209 26-11-2014 19:20:00 5.7 C 6.26 g/m*3 5.7 C 0 km/h
210 26-11-2014 19:25:00 5.7 C 6.33 g/m*3 5.7 C 0 km/h
211 26-11-2014 19:30:00 5.7 C 6.4 g/m*3 5.7 C 0 km/h
212 26-11-2014 19:35:00 5.7 C 6.33 g/m*3 5.7 C 0 km/h
213 26-11-2014 19:40:00 5.7 C 6.33 g/m*3 5.7 C 0 km/h
214 26-11-2014 19:45:00 5.7 C 6.33 g/m*3 5.7 C 1.6 km/h
215 26-11-2014 19:50:00 5.7 C 6.33 g/m*3 5.7 C 0 km/h
216 26-11-2014 19:55:00 5.7 C 6.4 g/m*3 5.7 C 0 km/h
217 26-11-2014 20:00:00 5.7 C 6.4 g/m*3 5.7 C 0 km/h
218 26-11-2014 20:05:00 5.6 C 6.36 g/m*3 5.6 C 0 km/h
219 26-11-2014 20:10:00 5.6 C 6.29 g/m*3 5.6 C 0 km/h
220 26-11-2014 20:15:00 5.6 C 6.29 g/m*3 5.6 C 0 km/h
221 26-11-2014 20:20:00 5.6 C 6.36 g/m*3 5.6 C 0 km/h
222 26-11-2014 20:25:00 5.6 C 6.36 g/m*3 5.6 C 0 km/h
223 26-11-2014 20:30:00 5.6 C 6.36 g/m*3 5.6 C 0 km/h
224 26-11-2014 20:35:00 5.6 C 6.36 g/m*3 5.6 C 0 km/h
225 26-11-2014 20:40:00 5.6 C 6.36 g/m*3 5.6 C 0 km/h
Sensor: Nr:Datum:Temp:Abs-Feuchte:Windchill:Wind:
Aussen-T/F 226 26-11-2014 20:45:00 5.6 C 6.36 g/m*3 5.6 C 0 km/h
227 26-11-2014 20:50:00 5.6 C 6.36 g/m*3 5.6 C 0 km/h
228 26-11-2014 20:55:00 5.6 C 6.36 g/m*3 5.6 C 0 km/h
229 26-11-2014 21:00:00 5.7 C 6.4 g/m*3 5.7 C 0 km/h
230 26-11-2014 21:05:00 5.7 C 6.4 g/m*3 5.7 C 0 km/h
231 26-11-2014 21:10:00 5.7 C 6.4 g/m*3 5.7 C 0 km/h
232 26-11-2014 21:15:00 5.7 C 6.33 g/m*3 5.7 C 1.6 km/h
233 26-11-2014 21:20:00 5.7 C 6.33 g/m*3 5.7 C 1.6 km/h
234 26-11-2014 21:25:00 5.7 C 6.33 g/m*3 5.7 C 0 km/h
235 26-11-2014 21:30:00 5.8 C 6.45 g/m*3 5.8 C 0 km/h
236 26-11-2014 21:35:00 5.8 C 6.38 g/m*3 5.8 C 0 km/h
237 26-11-2014 21:40:00 5.8 C 6.45 g/m*3 5.8 C 0 km/h
238 26-11-2014 21:45:00 5.8 C 6.45 g/m*3 5.8 C 0 km/h
239 26-11-2014 21:50:00 5.8 C 6.45 g/m*3 5.8 C 0 km/h
240 26-11-2014 21:55:00 5.8 C 6.52 g/m*3 5.8 C 0 km/h
241 26-11-2014 22:00:00 5.8 C 6.52 g/m*3 5.8 C 0 km/h
242 26-11-2014 22:05:00 5.7 C 6.48 g/m*3 5.7 C 0 km/h
243 26-11-2014 22:10:00 5.7 C 6.48 g/m*3 5.7 C 0 km/h
244 26-11-2014 22:15:00 5.7 C 6.48 g/m*3 5.7 C 0 km/h
245 26-11-2014 22:20:00 5.7 C 6.48 g/m*3 5.7 C 0 km/h
246 26-11-2014 22:25:00 5.7 C 6.55 g/m*3 5.7 C 0 km/h
247 26-11-2014 22:30:00 5.7 C 6.62 g/m*3 5.7 C 0 km/h
248 26-11-2014 22:35:00 5.6 C 6.57 g/m*3 5.6 C 0 km/h
249 26-11-2014 22:40:00 5.6 C 6.57 g/m*3 5.6 C 0 km/h
250 26-11-2014 22:45:00 5.5 C 6.6 g/m*3 5.5 C 0 km/h
Sensor: Nr:Datum:Temp:Abs-Feuchte:Windchill:Wind:
Aussen-T/F 251 26-11-2014 22:50:00 5.4 C 6.56 g/m*3 5.4 C 0 km/h
252 26-11-2014 22:55:00 5.4 C 6.56 g/m*3 5.4 C 0 km/h
253 26-11-2014 23:00:00 5.3 C 6.52 g/m*3 5.3 C 0 km/h
254 26-11-2014 23:05:00 5.3 C 6.58 g/m*3 5.3 C 0 km/h
255 26-11-2014 23:10:00 5.3 C 6.58 g/m*3 5.3 C 0 km/h
256 26-11-2014 23:15:00 5.3 C 6.58 g/m*3 5.3 C 0 km/h
257 26-11-2014 23:20:00 5.3 C 6.58 g/m*3 5.3 C 0 km/h
258 26-11-2014 23:25:00 5.3 C 6.58 g/m*3 5.3 C 0 km/h
259 26-11-2014 23:30:00 5.3 C 6.58 g/m*3 5.3 C 0 km/h
260 26-11-2014 23:35:00 5.3 C 6.58 g/m*3 5.3 C 0 km/h
261 26-11-2014 23:40:00 5.3 C 6.58 g/m*3 5.3 C 0 km/h
262 26-11-2014 23:45:00 5.3 C 6.58 g/m*3 5.3 C 0 km/h
263 26-11-2014 23:50:00 5.3 C 6.58 g/m*3 5.3 C 0 km/h
264 26-11-2014 23:55:00 5.3 C 6.58 g/m*3 5.3 C 0 km/h
265 27-11-2014 00:00:00 5.3 C 6.58 g/m*3 5.3 C 0 km/h
266 27-11-2014 00:05:00 5.3 C 6.58 g/m*3 5.3 C 0 km/h
267 27-11-2014 00:10:00 5.2 C 6.54 g/m*3 5.2 C 0 km/h
268 27-11-2014 00:15:00 5.2 C 6.54 g/m*3 5.2 C 0 km/h
269 27-11-2014 00:20:00 5.3 C 6.58 g/m*3 5.3 C 0 km/h
270 27-11-2014 00:25:00 5.2 C 6.54 g/m*3 5.2 C 1.6 km/h
271 27-11-2014 00:30:00 5.2 C 6.54 g/m*3 5.2 C 1.6 km/h
272 27-11-2014 00:35:00 5.2 C 6.54 g/m*3 5.2 C 0 km/h
273 27-11-2014 00:40:00 5.2 C 6.54 g/m*3 5.2 C 0 km/h
274 27-11-2014 00:45:00 5.2 C 6.54 g/m*3 5.2 C 0 km/h
275 27-11-2014 00:50:00 5.2 C 6.47 g/m*3 5.2 C 0 km/h
Sensor: Nr:Datum:Temp:Abs-Feuchte:Windchill:Wind:
Aussen-T/F 276 27-11-2014 00:55:00 5.2 C 6.47 g/m*3 5.2 C 0 km/h
277 27-11-2014 01:00:00 5.2 C 6.47 g/m*3 5.2 C 0 km/h
278 27-11-2014 01:05:00 5.2 C 6.47 g/m*3 5.2 C 0 km/h
279 27-11-2014 01:10:00 5.3 C 6.52 g/m*3 5.3 C 0 km/h
280 27-11-2014 01:15:00 5.3 C 6.52 g/m*3 5.3 C 0 km/h
281 27-11-2014 01:20:00 5.3 C 6.52 g/m*3 5.3 C 0 km/h
282 27-11-2014 01:25:00 5.3 C 6.52 g/m*3 5.3 C 0 km/h
283 27-11-2014 01:30:00 5.3 C 6.52 g/m*3 5.3 C 0 km/h
284 27-11-2014 01:35:00 5.3 C 6.52 g/m*3 5.3 C 0 km/h
285 27-11-2014 01:40:00 5.3 C 6.52 g/m*3 5.3 C 0 km/h
286 27-11-2014 01:45:00 5.3 C 6.52 g/m*3 5.3 C 0 km/h
287 27-11-2014 01:50:00 5.3 C 6.52 g/m*3 5.3 C 0 km/h
288 27-11-2014 01:55:00 5.3 C 6.52 g/m*3 5.3 C 0 km/h
289 27-11-2014 02:00:00 5.3 C 6.52 g/m*3 5.3 C 0 km/h
290 27-11-2014 02:05:00 5.3 C 6.52 g/m*3 5.3 C 0 km/h
291 27-11-2014 02:10:00 5.3 C 6.52 g/m*3 5.3 C 0 km/h
292 27-11-2014 02:15:00 5.3 C 6.52 g/m*3 5.3 C 0 km/h
293 27-11-2014 02:20:00 5.3 C 6.52 g/m*3 5.3 C 0 km/h
294 27-11-2014 02:25:00 5.3 C 6.52 g/m*3 5.3 C 0 km/h
295 27-11-2014 02:30:00 5.3 C 6.52 g/m*3 5.3 C 0 km/h
296 27-11-2014 02:35:00 5.3 C 6.52 g/m*3 5.3 C 0 km/h
297 27-11-2014 02:40:00 5.3 C 6.52 g/m*3 5.3 C 0 km/h
298 27-11-2014 02:45:00 5.3 C 6.52 g/m*3 5.3 C 0 km/h
299 27-11-2014 02:50:00 5.4 C 6.56 g/m*3 5.4 C 0 km/h
300 27-11-2014 02:55:00 5.3 C 6.52 g/m*3 5.3 C 0 km/h
Sensor: Nr:Datum:Temp:Abs-Feuchte:Windchill:Wind:
Aussen-T/F 301 27-11-2014 03:00:00 5.3 C 6.52 g/m*3 5.3 C 0 km/h
302 27-11-2014 03:05:00 5.3 C 6.52 g/m*3 5.3 C 0 km/h
303 27-11-2014 03:10:00 5.4 C 6.56 g/m*3 5.4 C 0 km/h
304 27-11-2014 03:15:00 5.3 C 6.52 g/m*3 5.3 C 0 km/h
305 27-11-2014 03:20:00 5.4 C 6.56 g/m*3 5.4 C 0 km/h
306 27-11-2014 03:25:00 5.3 C 6.52 g/m*3 5.3 C 0 km/h
307 27-11-2014 03:30:00 5.4 C 6.56 g/m*3 5.4 C 0 km/h
308 27-11-2014 03:35:00 5.4 C 6.56 g/m*3 5.4 C 0 km/h
309 27-11-2014 03:40:00 5.3 C 6.52 g/m*3 5.3 C 0 km/h
310 27-11-2014 03:45:00 5.3 C 6.52 g/m*3 5.3 C 0 km/h
311 27-11-2014 03:50:00 5.3 C 6.52 g/m*3 5.3 C 0 km/h
312 27-11-2014 03:55:00 5.3 C 6.52 g/m*3 5.3 C 0 km/h
313 27-11-2014 04:00:00 5.3 C 6.52 g/m*3 5.3 C 0 km/h
314 27-11-2014 04:05:00 5.3 C 6.52 g/m*3 5.3 C 0 km/h
315 27-11-2014 04:10:00 5.3 C 6.45 g/m*3 5.3 C 0 km/h
316 27-11-2014 04:15:00 5.3 C 6.52 g/m*3 5.3 C 0 km/h
317 27-11-2014 04:20:00 5.3 C 6.52 g/m*3 5.3 C 0 km/h
318 27-11-2014 04:25:00 5.3 C 6.52 g/m*3 5.3 C 0 km/h
319 27-11-2014 04:30:00 5.4 C 6.56 g/m*3 5.4 C 0 km/h
320 27-11-2014 04:35:00 5.4 C 6.56 g/m*3 5.4 C 0 km/h
321 27-11-2014 04:40:00 5.4 C 6.56 g/m*3 5.4 C 0 km/h
322 27-11-2014 04:45:00 5.4 C 6.56 g/m*3 5.4 C 0 km/h
323 27-11-2014 04:50:00 5.3 C 6.45 g/m*3 5.3 C 0 km/h
324 27-11-2014 04:55:00 5.3 C 6.45 g/m*3 5.3 C 0 km/h
325 27-11-2014 05:00:00 5.3 C 6.45 g/m*3 5.3 C 0 km/h
Sensor: Nr:Datum:Temp:Abs-Feuchte:Windchill:Wind:
Aussen-T/F 326 27-11-2014 05:05:00 5.3 C 6.45 g/m*3 5.3 C 0 km/h
327 27-11-2014 05:10:00 5.3 C 6.45 g/m*3 5.3 C 0 km/h
328 27-11-2014 05:15:00 5.3 C 6.45 g/m*3 5.3 C 0 km/h
329 27-11-2014 05:20:00 5.3 C 6.45 g/m*3 5.3 C 0 km/h
330 27-11-2014 05:25:00 5.3 C 6.45 g/m*3 5.3 C 0 km/h
331 27-11-2014 05:30:00 5.3 C 6.45 g/m*3 5.3 C 0 km/h
332 27-11-2014 05:35:00 5.3 C 6.45 g/m*3 5.3 C 0 km/h
333 27-11-2014 05:40:00 5.3 C 6.45 g/m*3 5.3 C 0 km/h
334 27-11-2014 05:45:00 5.3 C 6.45 g/m*3 5.3 C 0 km/h
335 27-11-2014 05:50:00 5.3 C 6.45 g/m*3 5.3 C 0 km/h
336 27-11-2014 05:55:00 5.3 C 6.45 g/m*3 5.3 C 0 km/h
337 27-11-2014 06:00:00 5.3 C 6.45 g/m*3 5.3 C 0 km/h
338 27-11-2014 06:05:00 5.3 C 6.45 g/m*3 5.3 C 0 km/h
339 27-11-2014 06:10:00 5.3 C 6.45 g/m*3 5.3 C 0 km/h
340 27-11-2014 06:15:00 5.3 C 6.45 g/m*3 5.3 C 0 km/h
341 27-11-2014 06:20:00 5.3 C 6.45 g/m*3 5.3 C 0 km/h
342 27-11-2014 06:25:00 5.3 C 6.45 g/m*3 5.3 C 0 km/h
343 27-11-2014 06:30:00 5.3 C 6.45 g/m*3 5.3 C 0 km/h
344 27-11-2014 06:35:00 5.3 C 6.45 g/m*3 5.3 C 0 km/h
345 27-11-2014 06:40:00 5.3 C 6.45 g/m*3 5.3 C 0 km/h
346 27-11-2014 06:45:00 5.3 C 6.45 g/m*3 5.3 C 0 km/h
347 27-11-2014 06:50:00 5.3 C 6.45 g/m*3 5.3 C 0 km/h
348 27-11-2014 06:55:00 5.3 C 6.45 g/m*3 5.3 C 0 km/h
349 27-11-2014 07:00:00 5.2 C 6.4 g/m*3 5.2 C 0 km/h
350 27-11-2014 07:05:00 5.2 C 6.4 g/m*3 5.2 C 0 km/h
Sensor: Nr:Datum:Temp:Abs-Feuchte:Windchill:Wind:
Aussen-T/F 351 27-11-2014 07:10:00 5.2 C 6.4 g/m*3 5.2 C 0 km/h
352 27-11-2014 07:15:00 5.2 C 6.4 g/m*3 5.2 C 0 km/h
353 27-11-2014 07:20:00 5.2 C 6.4 g/m*3 5.2 C 0 km/h
354 27-11-2014 07:25:00 5.1 C 6.36 g/m*3 5.1 C 0 km/h
355 27-11-2014 07:30:00 5.1 C 6.36 g/m*3 5.1 C 0 km/h
356 27-11-2014 07:35:00 5.1 C 6.36 g/m*3 5.1 C 0 km/h
357 27-11-2014 07:40:00 5.1 C 6.36 g/m*3 5.1 C 0 km/h
358 27-11-2014 07:45:00 5.1 C 6.43 g/m*3 5.1 C 0 km/h
359 27-11-2014 07:50:00 5.1 C 6.43 g/m*3 5.1 C 0 km/h
360 27-11-2014 07:55:00 5.1 C 6.43 g/m*3 5.1 C 0 km/h
361 27-11-2014 08:00:00 5.1 C 6.43 g/m*3 5.1 C 0 km/h
362 27-11-2014 08:05:00 5.1 C 6.36 g/m*3 5.1 C 1.6 km/h
363 27-11-2014 08:10:00 5.1 C 6.36 g/m*3 5.1 C 0 km/h
364 27-11-2014 08:15:00 5.2 C 6.4 g/m*3 5.2 C 3.2 km/h
365 27-11-2014 08:20:00 5.2 C 6.33 g/m*3 5.2 C 3.2 km/h
366 27-11-2014 08:25:00 5.3 C 6.38 g/m*3 5.3 C 0 km/h
367 27-11-2014 08:30:00 5.3 C 6.38 g/m*3 5.3 C 0 km/h
368 27-11-2014 08:35:00 5.3 C 6.38 g/m*3 5.3 C 0 km/h
369 27-11-2014 08:40:00 5.3 C 6.38 g/m*3 5.3 C 0 km/h
370 27-11-2014 08:45:00 5.4 C 6.42 g/m*3 5.4 C 3.2 km/h
371 27-11-2014 08:50:00 5.4 C 6.42 g/m*3 5.4 C 0 km/h
372 27-11-2014 08:55:00 5.5 C 6.39 g/m*3 5.5 C 0 km/h
373 27-11-2014 09:00:00 5.5 C 6.39 g/m*3 5.5 C 0 km/h
374 27-11-2014 09:05:00 5.5 C 6.39 g/m*3 5.5 C 3.2 km/h
375 27-11-2014 09:10:00 5.6 C 6.36 g/m*3 5.6 C 3.2 km/h
Sensor: Nr:Datum:Temp:Abs-Feuchte:Windchill:Wind:
Aussen-T/F 376 27-11-2014 09:15:00 5.6 C 6.36 g/m*3 5.6 C 3.2 km/h
377 27-11-2014 09:20:00 5.7 C 6.4 g/m*3 5.7 C 4.8 km/h
378 27-11-2014 09:25:00 5.7 C 6.4 g/m*3 5.7 C 4.8 km/h
379 27-11-2014 09:30:00 5.8 C 6.45 g/m*3 5.8 C 4.8 km/h
380 27-11-2014 09:35:00 5.8 C 6.45 g/m*3 5.8 C 4.8 km/h
381 27-11-2014 09:40:00 5.8 C 6.45 g/m*3 5.8 C 1.6 km/h
382 27-11-2014 09:45:00 5.8 C 6.45 g/m*3 5.8 C 1.6 km/h
383 27-11-2014 09:50:00 5.9 C 6.49 g/m*3 5.9 C 1.6 km/h
384 27-11-2014 09:55:00 5.9 C 6.49 g/m*3 5.9 C 1.6 km/h
385 27-11-2014 10:00:00 5.9 C 6.49 g/m*3 5.9 C 0 km/h
386 27-11-2014 10:05:00 6 C 6.46 g/m*3 6 C 0 km/h
387 27-11-2014 10:10:00 6 C 6.46 g/m*3 6 C 1.6 km/h
388 27-11-2014 10:15:00 6.1 C 6.58 g/m*3 6.1 C 0 km/h
389 27-11-2014 10:20:00 6.1 C 6.58 g/m*3 6.1 C 0 km/h
390 27-11-2014 10:25:00 6.1 C 6.58 g/m*3 6.1 C 0 km/h
391 27-11-2014 10:30:00 6.2 C 6.62 g/m*3 6.2 C 3.2 km/h
392 27-11-2014 10:35:00 6.2 C 6.62 g/m*3 6.2 C 1.6 km/h
393 27-11-2014 10:40:00 6.2 C 6.62 g/m*3 6.2 C 4.8 km/h
394 27-11-2014 13:20:00 7.3 C 6.87 g/m*3 7.3 C 1.6 km/h
395 27-11-2014 13:25:00 7.3 C 6.87 g/m*3 7.3 C 1.6 km/h
396 27-11-2014 13:30:00 7.4 C 6.92 g/m*3 7.4 C 0 km/h
397 27-11-2014 13:35:00 7.4 C 7 g/m*3 7.4 C 1.6 km/h
398 27-11-2014 13:40:00 7.5 C 7.04 g/m*3 7.5 C 1.6 km/h
399 27-11-2014 13:45:00 7.6 C 7.09 g/m*3 7.6 C 0 km/h
400 27-11-2014 13:50:00 7.6 C 7.01 g/m*3 7.6 C 0 km/h
Sensor: Nr:Datum:Temp:Abs-Feuchte:Windchill:Wind:
Aussen-T/F 401 27-11-2014 13:55:00 7.6 C 7.01 g/m*3 7.6 C 1.6 km/h
402 27-11-2014 14:00:00 7.6 C 7.01 g/m*3 7.6 C 3.2 km/h
403 27-11-2014 14:05:00 7.6 C 7.01 g/m*3 7.6 C 3.2 km/h
404 27-11-2014 14:10:00 7.6 C 7.01 g/m*3 7.6 C 1.6 km/h
405 27-11-2014 14:15:00 7.6 C 7.01 g/m*3 7.6 C 1.6 km/h
406 27-11-2014 14:20:00 7.6 C 7.01 g/m*3 7.6 C 3.2 km/h
407 27-11-2014 14:25:00 7.5 C 6.96 g/m*3 7.5 C 4.8 km/h
408 27-11-2014 14:30:00 7.5 C 6.96 g/m*3 7.5 C 4.8 km/h
409 27-11-2014 14:35:00 7.5 C 6.96 g/m*3 7.5 C 4.8 km/h
410 27-11-2014 14:40:00 7.4 C 6.92 g/m*3 7.4 C 4.8 km/h
411 27-11-2014 14:45:00 7.4 C 6.92 g/m*3 7.4 C 4.8 km/h
412 27-11-2014 14:50:00 7.4 C 7 g/m*3 7.4 C 0 km/h
413 27-11-2014 14:55:00 7.4 C 7 g/m*3 7.4 C 4.8 km/h
414 27-11-2014 15:00:00 7.3 C 6.87 g/m*3 6.25 C 6.4 km/h
415 27-11-2014 15:05:00 7.3 C 6.95 g/m*3 7.3 C 3.2 km/h
416 27-11-2014 15:10:00 7.3 C 6.87 g/m*3 7.3 C 4.8 km/h
417 27-11-2014 15:15:00 7.3 C 6.87 g/m*3 7.3 C 0 km/h
418 27-11-2014 15:20:00 7.3 C 6.87 g/m*3 7.3 C 3.2 km/h
419 27-11-2014 15:25:00 7.3 C 6.95 g/m*3 7.3 C 3.2 km/h
420 27-11-2014 15:30:00 7.3 C 6.95 g/m*3 7.3 C 1.6 km/h
421 27-11-2014 15:35:00 7.3 C 7.03 g/m*3 7.3 C 0 km/h
422 27-11-2014 15:40:00 7.3 C 7.03 g/m*3 7.3 C 1.6 km/h
423 27-11-2014 15:45:00 7.2 C 6.99 g/m*3 7.2 C 3.2 km/h
424 27-11-2014 15:50:00 7.2 C 6.99 g/m*3 7.2 C 1.6 km/h
425 27-11-2014 15:55:00 7.2 C 7.06 g/m*3 7.2 C 1.6 km/h
Sensor: Nr:Datum:Temp:Abs-Feuchte:Windchill:Wind:
Aussen-T/F 426 27-11-2014 16:00:00 7.1 C 7.02 g/m*3 7.1 C 1.6 km/h
427 27-11-2014 16:05:00 7.1 C 7.02 g/m*3 7.1 C 4.8 km/h
428 27-11-2014 16:10:00 7 C 7.05 g/m*3 7 C 1.6 km/h
429 27-11-2014 16:15:00 7 C 7.13 g/m*3 7 C 0 km/h
430 27-11-2014 16:20:00 6.9 C 7.08 g/m*3 6.9 C 0 km/h
431 27-11-2014 16:25:00 6.8 C 7.04 g/m*3 6.8 C 0 km/h
432 27-11-2014 16:30:00 6.7 C 7.07 g/m*3 6.7 C 0 km/h
433 27-11-2014 16:35:00 6.6 C 7.02 g/m*3 6.6 C 1.6 km/h
434 27-11-2014 16:40:00 6.6 C 7.02 g/m*3 6.6 C 0 km/h
435 27-11-2014 16:45:00 6.6 C 7.1 g/m*3 6.6 C 0 km/h
436 27-11-2014 16:50:00 6.5 C 7.05 g/m*3 6.5 C 0 km/h
437 27-11-2014 16:55:00 6.4 C 7 g/m*3 6.4 C 0 km/h
438 27-11-2014 17:00:00 6.4 C 7 g/m*3 6.4 C 3.2 km/h
439 27-11-2014 17:05:00 6.4 C 7 g/m*3 6.4 C 0 km/h
440 27-11-2014 17:10:00 6.4 C 7 g/m*3 6.4 C 0 km/h
441 27-11-2014 17:15:00 6.3 C 6.96 g/m*3 6.3 C 0 km/h
442 27-11-2014 17:20:00 6.3 C 7.03 g/m*3 6.3 C 0 km/h
443 27-11-2014 17:25:00 6.3 C 6.96 g/m*3 6.3 C 1.6 km/h
444 27-11-2014 17:30:00 6.3 C 7.03 g/m*3 6.3 C 1.6 km/h
445 27-11-2014 17:35:00 6.3 C 7.03 g/m*3 6.3 C 0 km/h
446 27-11-2014 17:40:00 6.3 C 7.03 g/m*3 6.3 C 3.2 km/h
447 27-11-2014 17:45:00 6.2 C 6.99 g/m*3 6.2 C 3.2 km/h
448 27-11-2014 17:50:00 6.2 C 6.99 g/m*3 6.2 C 0 km/h
449 27-11-2014 17:55:00 6.2 C 6.99 g/m*3 6.2 C 1.6 km/h
450 27-11-2014 18:00:00 6.1 C 6.87 g/m*3 6.1 C 3.2 km/h
Sensor: Nr:Datum:Temp:Abs-Feuchte:Windchill:Wind:
Aussen-T/F 451 27-11-2014 18:05:00 6.1 C 6.94 g/m*3 6.1 C 3.2 km/h
452 27-11-2014 18:10:00 6.1 C 6.94 g/m*3 6.1 C 1.6 km/h
453 27-11-2014 18:15:00 6.1 C 6.94 g/m*3 6.1 C 0 km/h
454 27-11-2014 18:20:00 6.1 C 6.94 g/m*3 6.1 C 0 km/h
455 27-11-2014 18:25:00 6.1 C 6.94 g/m*3 6.1 C 0 km/h
456 27-11-2014 18:30:00 6.1 C 6.94 g/m*3 6.1 C 1.6 km/h
457 27-11-2014 18:35:00 6.1 C 6.94 g/m*3 6.1 C 0 km/h
458 27-11-2014 18:40:00 6 C 6.9 g/m*3 6 C 0 km/h
459 27-11-2014 18:45:00 6 C 6.9 g/m*3 6 C 0 km/h
460 27-11-2014 18:50:00 5.9 C 6.85 g/m*3 5.9 C 0 km/h
461 27-11-2014 18:55:00 5.9 C 6.85 g/m*3 5.9 C 0 km/h
462 27-11-2014 19:00:00 5.9 C 6.85 g/m*3 5.9 C 0 km/h
463 27-11-2014 19:05:00 5.9 C 6.85 g/m*3 5.9 C 0 km/h
464 27-11-2014 19:10:00 5.9 C 6.85 g/m*3 5.9 C 0 km/h
465 27-11-2014 19:15:00 5.8 C 6.88 g/m*3 5.8 C 0 km/h
466 27-11-2014 19:20:00 5.8 C 6.81 g/m*3 5.8 C 1.6 km/h
467 27-11-2014 19:25:00 5.8 C 6.81 g/m*3 5.8 C 1.6 km/h
468 27-11-2014 19:30:00 5.8 C 6.81 g/m*3 5.8 C 0 km/h
469 27-11-2014 19:35:00 5.8 C 6.81 g/m*3 5.8 C 0 km/h
470 27-11-2014 19:40:00 5.8 C 6.81 g/m*3 5.8 C 0 km/h
471 27-11-2014 19:45:00 5.8 C 6.81 g/m*3 5.8 C 1.6 km/h
472 27-11-2014 19:50:00 5.8 C 6.81 g/m*3 5.8 C 0 km/h
473 27-11-2014 19:55:00 5.8 C 6.81 g/m*3 5.8 C 0 km/h
474 27-11-2014 20:00:00 5.8 C 6.81 g/m*3 5.8 C 0 km/h
475 27-11-2014 20:05:00 5.8 C 6.81 g/m*3 5.8 C 0 km/h
Sensor: Nr:Datum:Temp:Abs-Feuchte:Windchill:Wind:
Aussen-T/F 476 27-11-2014 20:10:00 5.8 C 6.81 g/m*3 5.8 C 1.6 km/h
477 27-11-2014 20:15:00 5.8 C 6.81 g/m*3 5.8 C 0 km/h
478 27-11-2014 20:20:00 5.8 C 6.81 g/m*3 5.8 C 0 km/h
479 27-11-2014 20:25:00 5.7 C 6.76 g/m*3 5.7 C 0 km/h
480 27-11-2014 20:30:00 5.7 C 6.76 g/m*3 5.7 C 1.6 km/h
481 27-11-2014 20:35:00 5.7 C 6.76 g/m*3 5.7 C 1.6 km/h
482 27-11-2014 20:40:00 5.7 C 6.76 g/m*3 5.7 C 1.6 km/h
483 27-11-2014 20:45:00 5.7 C 6.76 g/m*3 5.7 C 1.6 km/h
484 27-11-2014 20:50:00 5.7 C 6.76 g/m*3 5.7 C 3.2 km/h
485 27-11-2014 20:55:00 5.7 C 6.76 g/m*3 5.7 C 1.6 km/h
486 27-11-2014 21:00:00 5.7 C 6.76 g/m*3 5.7 C 0 km/h
487 27-11-2014 21:05:00 5.7 C 6.76 g/m*3 5.7 C 1.6 km/h
488 27-11-2014 21:10:00 5.7 C 6.76 g/m*3 5.7 C 0 km/h
489 27-11-2014 21:15:00 5.7 C 6.76 g/m*3 5.7 C 0 km/h
490 27-11-2014 21:20:00 5.7 C 6.76 g/m*3 5.7 C 0 km/h
491 27-11-2014 21:25:00 5.7 C 6.76 g/m*3 5.7 C 0 km/h
492 27-11-2014 21:30:00 5.7 C 6.76 g/m*3 5.7 C 3.2 km/h
493 27-11-2014 21:35:00 5.7 C 6.76 g/m*3 5.7 C 0 km/h
494 27-11-2014 21:40:00 5.7 C 6.76 g/m*3 5.7 C 0 km/h
495 27-11-2014 21:45:00 5.7 C 6.76 g/m*3 5.7 C 0 km/h
496 27-11-2014 21:50:00 5.7 C 6.76 g/m*3 5.7 C 0 km/h
497 27-11-2014 21:55:00 5.7 C 6.76 g/m*3 5.7 C 0 km/h
498 27-11-2014 22:00:00 5.7 C 6.76 g/m*3 5.7 C 0 km/h
499 27-11-2014 22:05:00 5.7 C 6.76 g/m*3 5.7 C 0 km/h
500 27-11-2014 22:10:00 5.7 C 6.76 g/m*3 5.7 C 0 km/h
Sensor: Nr:Datum:Temp:Abs-Feuchte:Windchill:Wind:
Aussen-T/F 501 27-11-2014 22:15:00 5.7 C 6.76 g/m*3 5.7 C 0 km/h
502 27-11-2014 22:20:00 5.7 C 6.83 g/m*3 5.7 C 0 km/h
503 27-11-2014 22:25:00 5.7 C 6.76 g/m*3 5.7 C 0 km/h
504 27-11-2014 22:30:00 5.7 C 6.76 g/m*3 5.7 C 0 km/h
505 27-11-2014 22:35:00 5.7 C 6.76 g/m*3 5.7 C 0 km/h
506 27-11-2014 22:40:00 5.7 C 6.76 g/m*3 5.7 C 0 km/h
507 27-11-2014 22:45:00 5.7 C 6.76 g/m*3 5.7 C 0 km/h
508 27-11-2014 22:50:00 5.7 C 6.76 g/m*3 5.7 C 0 km/h
509 27-11-2014 22:55:00 5.7 C 6.76 g/m*3 5.7 C 0 km/h
510 27-11-2014 23:00:00 5.8 C 6.81 g/m*3 5.8 C 0 km/h
511 27-11-2014 23:05:00 5.7 C 6.76 g/m*3 5.7 C 0 km/h
512 27-11-2014 23:10:00 5.8 C 6.81 g/m*3 5.8 C 0 km/h
513 27-11-2014 23:15:00 5.7 C 6.76 g/m*3 5.7 C 0 km/h
514 27-11-2014 23:20:00 5.7 C 6.76 g/m*3 5.7 C 0 km/h
515 27-11-2014 23:25:00 5.8 C 6.81 g/m*3 5.8 C 0 km/h
516 27-11-2014 23:30:00 5.8 C 6.81 g/m*3 5.8 C 0 km/h
517 27-11-2014 23:35:00 5.8 C 6.81 g/m*3 5.8 C 0 km/h
518 27-11-2014 23:40:00 5.8 C 6.81 g/m*3 5.8 C 0 km/h
519 27-11-2014 23:45:00 5.7 C 6.76 g/m*3 5.7 C 0 km/h
520 27-11-2014 23:50:00 5.8 C 6.81 g/m*3 5.8 C 0 km/h
521 27-11-2014 23:55:00 5.7 C 6.76 g/m*3 5.7 C 0 km/h
522 28-11-2014 00:00:00 5.8 C 6.81 g/m*3 5.8 C 0 km/h
523 28-11-2014 00:05:00 5.8 C 6.81 g/m*3 5.8 C 0 km/h
524 28-11-2014 00:10:00 5.8 C 6.81 g/m*3 5.8 C 1.6 km/h
525 28-11-2014 00:15:00 5.8 C 6.81 g/m*3 5.8 C 0 km/h
Sensor: Nr:Datum:Temp:Abs-Feuchte:Windchill:Wind:
Aussen-T/F 526 28-11-2014 00:20:00 5.8 C 6.81 g/m*3 5.8 C 0 km/h
527 28-11-2014 00:25:00 5.8 C 6.81 g/m*3 5.8 C 0 km/h
528 28-11-2014 00:30:00 5.8 C 6.81 g/m*3 5.8 C 0 km/h
529 28-11-2014 00:35:00 5.8 C 6.81 g/m*3 5.8 C 0 km/h
530 28-11-2014 00:40:00 5.8 C 6.81 g/m*3 5.8 C 0 km/h
531 28-11-2014 00:45:00 5.8 C 6.81 g/m*3 5.8 C 0 km/h
532 28-11-2014 00:50:00 5.8 C 6.81 g/m*3 5.8 C 0 km/h
533 28-11-2014 00:55:00 5.9 C 6.85 g/m*3 5.9 C 0 km/h
534 28-11-2014 01:00:00 5.9 C 6.85 g/m*3 5.9 C 0 km/h
535 28-11-2014 01:05:00 5.9 C 6.85 g/m*3 5.9 C 0 km/h
536 28-11-2014 01:10:00 5.9 C 6.85 g/m*3 5.9 C 0 km/h
537 28-11-2014 01:15:00 5.9 C 6.85 g/m*3 5.9 C 0 km/h
538 28-11-2014 01:20:00 5.9 C 6.85 g/m*3 5.9 C 0 km/h
539 28-11-2014 01:25:00 5.9 C 6.85 g/m*3 5.9 C 0 km/h
540 28-11-2014 01:30:00 5.9 C 6.85 g/m*3 5.9 C 0 km/h
541 28-11-2014 01:35:00 5.9 C 6.85 g/m*3 5.9 C 0 km/h
542 28-11-2014 01:40:00 5.9 C 6.85 g/m*3 5.9 C 1.6 km/h
543 28-11-2014 01:45:00 5.9 C 6.78 g/m*3 5.9 C 3.2 km/h
544 28-11-2014 01:50:00 5.9 C 6.78 g/m*3 5.9 C 1.6 km/h
545 28-11-2014 01:55:00 5.9 C 6.78 g/m*3 5.9 C 1.6 km/h
546 28-11-2014 02:00:00 5.9 C 6.78 g/m*3 5.9 C 0 km/h
547 28-11-2014 02:05:00 5.9 C 6.71 g/m*3 5.9 C 1.6 km/h
548 28-11-2014 02:10:00 5.9 C 6.71 g/m*3 5.9 C 1.6 km/h
549 28-11-2014 02:15:00 5.9 C 6.71 g/m*3 5.9 C 1.6 km/h
550 28-11-2014 02:20:00 5.8 C 6.66 g/m*3 5.8 C 0 km/h
Sensor: Nr:Datum:Temp:Abs-Feuchte:Windchill:Wind:
Aussen-T/F 551 28-11-2014 02:25:00 5.8 C 6.66 g/m*3 5.8 C 1.6 km/h
552 28-11-2014 02:30:00 5.7 C 6.62 g/m*3 5.7 C 0 km/h
553 28-11-2014 02:35:00 5.7 C 6.62 g/m*3 5.7 C 0 km/h
554 28-11-2014 02:40:00 5.5 C 6.53 g/m*3 5.5 C 1.6 km/h
555 28-11-2014 02:45:00 5.4 C 6.49 g/m*3 5.4 C 3.2 km/h
556 28-11-2014 02:50:00 5.3 C 6.45 g/m*3 5.3 C 3.2 km/h
557 28-11-2014 02:55:00 5.3 C 6.45 g/m*3 5.3 C 1.6 km/h
558 28-11-2014 03:00:00 5.2 C 6.4 g/m*3 5.2 C 1.6 km/h
559 28-11-2014 03:05:00 5.1 C 6.36 g/m*3 5.1 C 0 km/h
560 28-11-2014 03:10:00 5.1 C 6.43 g/m*3 5.1 C 0 km/h
561 28-11-2014 03:15:00 5.1 C 6.43 g/m*3 5.1 C 1.6 km/h
562 28-11-2014 03:20:00 5 C 6.39 g/m*3 5 C 0 km/h
563 28-11-2014 03:25:00 4.9 C 6.35 g/m*3 4.9 C 0 km/h
564 28-11-2014 03:30:00 4.9 C 6.35 g/m*3 4.9 C 0 km/h
565 28-11-2014 03:35:00 4.9 C 6.35 g/m*3 4.9 C 1.6 km/h
566 28-11-2014 03:40:00 4.9 C 6.35 g/m*3 4.9 C 0 km/h
567 28-11-2014 03:45:00 4.9 C 6.35 g/m*3 4.9 C 0 km/h
568 28-11-2014 03:50:00 4.9 C 6.35 g/m*3 4.9 C 0 km/h
569 28-11-2014 03:55:00 4.9 C 6.35 g/m*3 4.9 C 0 km/h
570 28-11-2014 04:00:00 4.9 C 6.35 g/m*3 4.9 C 0 km/h
571 28-11-2014 04:05:00 4.9 C 6.35 g/m*3 4.9 C 1.6 km/h
572 28-11-2014 04:10:00 4.9 C 6.35 g/m*3 4.9 C 0 km/h
573 28-11-2014 04:15:00 4.9 C 6.35 g/m*3 4.9 C 0 km/h
574 28-11-2014 04:20:00 4.9 C 6.35 g/m*3 4.9 C 0 km/h
575 28-11-2014 04:25:00 5 C 6.39 g/m*3 5 C 1.6 km/h
Sensor: Nr:Datum:Temp:Abs-Feuchte:Windchill:Wind:
Aussen-T/F 576 28-11-2014 04:30:00 4.9 C 6.35 g/m*3 4.9 C 3.2 km/h
577 28-11-2014 04:35:00 5 C 6.39 g/m*3 5 C 3.2 km/h
578 28-11-2014 04:40:00 5.1 C 6.43 g/m*3 5.1 C 0 km/h
579 28-11-2014 04:45:00 5.1 C 6.36 g/m*3 5.1 C 0 km/h
580 28-11-2014 04:50:00 5.1 C 6.36 g/m*3 5.1 C 0 km/h
581 28-11-2014 04:55:00 5.1 C 6.36 g/m*3 5.1 C 1.6 km/h
582 28-11-2014 05:00:00 5 C 6.32 g/m*3 5 C 0 km/h
583 28-11-2014 05:05:00 5 C 6.32 g/m*3 5 C 1.6 km/h
584 28-11-2014 05:10:00 4.9 C 6.28 g/m*3 4.9 C 0 km/h
585 28-11-2014 05:15:00 4.9 C 6.28 g/m*3 4.9 C 0 km/h
586 28-11-2014 05:20:00 4.9 C 6.35 g/m*3 4.9 C 1.6 km/h
587 28-11-2014 05:25:00 4.9 C 6.35 g/m*3 4.9 C 0 km/h
588 28-11-2014 05:30:00 4.9 C 6.35 g/m*3 4.9 C 0 km/h
589 28-11-2014 05:35:00 4.8 C 6.3 g/m*3 4.8 C 1.6 km/h
590 28-11-2014 05:40:00 4.8 C 6.3 g/m*3 4.8 C 0 km/h
591 28-11-2014 05:45:00 4.8 C 6.3 g/m*3 4.8 C 0 km/h
592 28-11-2014 05:50:00 4.8 C 6.3 g/m*3 4.8 C 1.6 km/h
593 28-11-2014 05:55:00 4.8 C 6.3 g/m*3 4.8 C 0 km/h
594 28-11-2014 06:00:00 4.8 C 6.3 g/m*3 4.8 C 1.6 km/h
595 28-11-2014 06:05:00 4.8 C 6.3 g/m*3 4.8 C 0 km/h
596 28-11-2014 06:10:00 4.8 C 6.3 g/m*3 4.8 C 0 km/h
597 28-11-2014 06:15:00 4.8 C 6.3 g/m*3 4.8 C 0 km/h
598 28-11-2014 06:20:00 4.8 C 6.3 g/m*3 4.8 C 0 km/h
599 28-11-2014 06:25:00 4.7 C 6.26 g/m*3 4.7 C 1.6 km/h
600 28-11-2014 06:30:00 4.7 C 6.26 g/m*3 4.7 C 3.2 km/h
Sensor: Nr:Datum:Temp:Abs-Feuchte:Windchill:Wind:
Aussen-T/F 601 28-11-2014 06:35:00 4.7 C 6.26 g/m*3 4.7 C 0 km/h
602 28-11-2014 06:40:00 4.7 C 6.19 g/m*3 4.7 C 1.6 km/h
603 28-11-2014 06:45:00 4.8 C 6.3 g/m*3 4.8 C 0 km/h
604 28-11-2014 06:50:00 4.7 C 6.19 g/m*3 4.7 C 3.2 km/h
605 28-11-2014 06:55:00 4.7 C 6.19 g/m*3 4.7 C 0 km/h
606 28-11-2014 07:00:00 4.8 C 6.24 g/m*3 4.8 C 0 km/h
607 28-11-2014 07:05:00 4.8 C 6.24 g/m*3 4.8 C 0 km/h
608 28-11-2014 07:10:00 4.8 C 6.24 g/m*3 4.8 C 0 km/h
609 28-11-2014 07:15:00 4.8 C 6.24 g/m*3 4.8 C 0 km/h
610 28-11-2014 07:20:00 4.8 C 6.24 g/m*3 4.8 C 0 km/h
611 28-11-2014 07:25:00 4.9 C 6.28 g/m*3 4.9 C 0 km/h
612 28-11-2014 07:30:00 4.9 C 6.28 g/m*3 4.9 C 3.2 km/h
613 28-11-2014 07:35:00 4.9 C 6.28 g/m*3 4.9 C 3.2 km/h
614 28-11-2014 07:40:00 4.9 C 6.28 g/m*3 4.9 C 3.2 km/h
615 28-11-2014 07:45:00 4.9 C 6.28 g/m*3 3.48 C 6.4 km/h
616 28-11-2014 07:50:00 4.9 C 6.21 g/m*3 4.9 C 4.8 km/h
617 28-11-2014 07:55:00 5 C 6.25 g/m*3 5 C 1.6 km/h
618 28-11-2014 08:00:00 5.1 C 6.29 g/m*3 5.1 C 1.6 km/h
619 28-11-2014 08:05:00 5.1 C 6.29 g/m*3 5.1 C 3.2 km/h
620 28-11-2014 08:10:00 5 C 6.25 g/m*3 5 C 1.6 km/h
621 28-11-2014 08:15:00 4.9 C 6.28 g/m*3 4.9 C 0 km/h
622 28-11-2014 08:20:00 4.9 C 6.28 g/m*3 4.9 C 1.6 km/h
623 28-11-2014 08:25:00 4.9 C 6.28 g/m*3 4.9 C 0 km/h
624 28-11-2014 08:30:00 4.8 C 6.24 g/m*3 4.8 C 1.6 km/h
625 28-11-2014 08:35:00 4.8 C 6.24 g/m*3 4.8 C 0 km/h
Sensor: Nr:Datum:Temp:Abs-Feuchte:Windchill:Wind:
Aussen-T/F 626 28-11-2014 08:40:00 4.9 C 6.35 g/m*3 4.9 C 3.2 km/h
627 28-11-2014 08:45:00 4.9 C 6.28 g/m*3 4.9 C 3.2 km/h
628 28-11-2014 08:50:00 5.1 C 6.36 g/m*3 5.1 C 1.6 km/h
629 28-11-2014 08:55:00 5.2 C 6.4 g/m*3 3.82 C 6.4 km/h
630 28-11-2014 09:00:00 5.2 C 6.4 g/m*3 5.2 C 3.2 km/h
631 28-11-2014 09:05:00 5.2 C 6.4 g/m*3 5.2 C 0 km/h
632 28-11-2014 09:25:00 5.6 C 6.43 g/m*3 4.29 C 6.4 km/h
633 28-11-2014 09:30:00 5.7 C 6.48 g/m*3 5.7 C 3.2 km/h
634 28-11-2014 09:35:00 5.7 C 6.4 g/m*3 5.7 C 1.6 km/h
635 28-11-2014 09:40:00 5.7 C 6.48 g/m*3 3.56 C 9.7 km/h
636 28-11-2014 09:45:00 5.7 C 6.48 g/m*3 4.4 C 6.4 km/h
637 28-11-2014 09:50:00 5.8 C 6.52 g/m*3 5.8 C 3.2 km/h
638 28-11-2014 09:55:00 5.8 C 6.52 g/m*3 5.8 C 4.8 km/h
639 28-11-2014 10:00:00 5.8 C 6.52 g/m*3 4.05 C 8.1 km/h
640 28-11-2014 10:05:00 5.9 C 6.56 g/m*3 5.9 C 1.6 km/h
641 28-11-2014 10:10:00 5.9 C 6.56 g/m*3 5.9 C 3.2 km/h
642 28-11-2014 10:15:00 6.1 C 6.65 g/m*3 4.4 C 8.1 km/h
643 28-11-2014 10:20:00 6.1 C 6.65 g/m*3 6.1 C 3.2 km/h
644 28-11-2014 10:25:00 6.2 C 6.62 g/m*3 6.2 C 4.8 km/h
645 28-11-2014 10:30:00 6.2 C 6.62 g/m*3 6.2 C 3.2 km/h
646 28-11-2014 10:35:00 6.2 C 6.69 g/m*3 4.15 C 9.7 km/h
647 28-11-2014 10:40:00 6.2 C 6.62 g/m*3 6.2 C 3.2 km/h
648 28-11-2014 10:45:00 6.2 C 6.62 g/m*3 6.2 C 4.8 km/h
649 28-11-2014 10:50:00 6.2 C 6.62 g/m*3 6.2 C 4.8 km/h
650 28-11-2014 10:55:00 6.2 C 6.62 g/m*3 4.98 C 6.4 km/h
Sensor: Nr:Datum:Temp:Abs-Feuchte:Windchill:Wind:
Aussen-T/F 651 28-11-2014 11:00:00 6.2 C 6.62 g/m*3 6.2 C 4.8 km/h
652 28-11-2014 11:05:00 6.2 C 6.62 g/m*3 4.15 C 9.7 km/h
653 28-11-2014 11:10:00 6.2 C 6.62 g/m*3 6.2 C 4.8 km/h
654 28-11-2014 11:15:00 6.2 C 6.55 g/m*3 6.2 C 3.2 km/h
655 28-11-2014 11:20:00 6.2 C 6.55 g/m*3 6.2 C 4.8 km/h
656 28-11-2014 11:25:00 6.2 C 6.62 g/m*3 6.2 C 4.8 km/h
657 28-11-2014 11:30:00 6.2 C 6.62 g/m*3 6.2 C 3.2 km/h
658 28-11-2014 11:35:00 6.2 C 6.62 g/m*3 6.2 C 4.8 km/h
659 28-11-2014 11:40:00 6.2 C 6.62 g/m*3 6.2 C 1.6 km/h
660 28-11-2014 11:45:00 6.2 C 6.62 g/m*3 6.2 C 3.2 km/h
661 28-11-2014 11:50:00 6.2 C 6.62 g/m*3 6.2 C 3.2 km/h
662 28-11-2014 12:10:00 6.5 C 7.5 g/m*3 5.33 C 6.4 km/h
663 28-11-2014 12:15:00 6.5 C 7.5 g/m*3 6.5 C 4.8 km/h
664 28-11-2014 16:10:00 5.6 C 6.36 g/m*3 3.81 C 8.1 km/h
665 28-11-2014 16:15:00 5.6 C 6.36 g/m*3 3.81 C 8.1 km/h
666 28-11-2014 16:20:00 5.6 C 6.36 g/m*3 3.11 C 11.3 km/h
667 28-11-2014 16:25:00 5.5 C 6.32 g/m*3 5.5 C 3.2 km/h
668 28-11-2014 16:30:00 5.5 C 6.32 g/m*3 5.5 C 3.2 km/h
669 28-11-2014 16:35:00 5.5 C 6.39 g/m*3 5.5 C 3.2 km/h
670 28-11-2014 16:40:00 5.5 C 6.32 g/m*3 5.5 C 3.2 km/h
671 28-11-2014 16:45:00 5.5 C 6.32 g/m*3 5.5 C 3.2 km/h
672 28-11-2014 16:50:00 5.5 C 6.32 g/m*3 5.5 C 3.2 km/h
673 28-11-2014 16:55:00 5.5 C 6.32 g/m*3 5.5 C 3.2 km/h
674 28-11-2014 17:00:00 5.5 C 6.32 g/m*3 5.5 C 1.6 km/h
675 28-11-2014 17:05:00 5.5 C 6.32 g/m*3 4.17 C 6.4 km/h
Sensor: Nr:Datum:Temp:Abs-Feuchte:Windchill:Wind:
Aussen-T/F 676 28-11-2014 17:10:00 5.5 C 6.32 g/m*3 4.17 C 6.4 km/h
677 28-11-2014 17:15:00 5.5 C 6.32 g/m*3 3.32 C 9.7 km/h
678 28-11-2014 17:20:00 5.5 C 6.32 g/m*3 5.5 C 3.2 km/h
679 28-11-2014 17:25:00 5.5 C 6.32 g/m*3 5.5 C 4.8 km/h
680 28-11-2014 17:30:00 5.5 C 6.32 g/m*3 4.17 C 6.4 km/h
681 28-11-2014 17:35:00 5.5 C 6.32 g/m*3 4.17 C 6.4 km/h
682 28-11-2014 17:40:00 5.5 C 6.32 g/m*3 5.5 C 3.2 km/h
683 28-11-2014 17:45:00 5.5 C 6.32 g/m*3 5.5 C 3.2 km/h
684 28-11-2014 17:50:00 5.5 C 6.39 g/m*3 5.5 C 3.2 km/h
685 28-11-2014 17:55:00 5.5 C 6.39 g/m*3 5.5 C 1.6 km/h
686 28-11-2014 18:00:00 5.5 C 6.39 g/m*3 5.5 C 1.6 km/h
687 28-11-2014 18:05:00 5.5 C 6.39 g/m*3 5.5 C 4.8 km/h
688 28-11-2014 18:10:00 5.5 C 6.39 g/m*3 5.5 C 1.6 km/h
689 28-11-2014 18:15:00 5.5 C 6.39 g/m*3 5.5 C 1.6 km/h
690 28-11-2014 18:20:00 5.5 C 6.32 g/m*3 5.5 C 4.8 km/h
691 28-11-2014 18:25:00 5.5 C 6.32 g/m*3 5.5 C 3.2 km/h
692 28-11-2014 18:30:00 5.4 C 6.28 g/m*3 5.4 C 3.2 km/h
693 28-11-2014 18:35:00 5.4 C 6.28 g/m*3 5.4 C 3.2 km/h
694 28-11-2014 18:40:00 5.4 C 6.28 g/m*3 5.4 C 3.2 km/h
695 28-11-2014 18:45:00 5.4 C 6.28 g/m*3 5.4 C 4.8 km/h
696 28-11-2014 18:50:00 5.4 C 6.28 g/m*3 5.4 C 4.8 km/h
697 28-11-2014 18:55:00 5.4 C 6.28 g/m*3 5.4 C 3.2 km/h
698 28-11-2014 19:00:00 5.4 C 6.28 g/m*3 5.4 C 1.6 km/h
699 28-11-2014 19:05:00 5.4 C 6.28 g/m*3 5.4 C 3.2 km/h
700 28-11-2014 19:10:00 5.4 C 6.28 g/m*3 5.4 C 3.2 km/h
Sensor: Nr:Datum:Temp:Abs-Feuchte:Windchill:Wind:
Aussen-T/F 701 28-11-2014 19:15:00 5.4 C 6.28 g/m*3 5.4 C 3.2 km/h
702 28-11-2014 19:20:00 5.4 C 6.28 g/m*3 5.4 C 1.6 km/h
703 28-11-2014 19:25:00 5.4 C 6.28 g/m*3 5.4 C 4.8 km/h
704 28-11-2014 19:30:00 5.4 C 6.28 g/m*3 4.06 C 6.4 km/h
705 28-11-2014 19:35:00 5.4 C 6.28 g/m*3 5.4 C 4.8 km/h
706 28-11-2014 19:40:00 5.4 C 6.28 g/m*3 5.4 C 4.8 km/h
707 28-11-2014 19:45:00 5.4 C 6.28 g/m*3 4.06 C 6.4 km/h
708 28-11-2014 19:50:00 5.4 C 6.28 g/m*3 5.4 C 4.8 km/h
709 28-11-2014 19:55:00 5.5 C 6.39 g/m*3 5.5 C 3.2 km/h
710 28-11-2014 20:00:00 5.5 C 6.32 g/m*3 5.5 C 3.2 km/h
711 28-11-2014 20:05:00 5.5 C 6.32 g/m*3 5.5 C 3.2 km/h
712 28-11-2014 20:10:00 5.5 C 6.32 g/m*3 5.5 C 1.6 km/h
713 28-11-2014 20:15:00 5.5 C 6.32 g/m*3 5.5 C 4.8 km/h
714 28-11-2014 20:20:00 5.6 C 6.36 g/m*3 5.6 C 1.6 km/h
715 28-11-2014 20:25:00 5.6 C 6.36 g/m*3 5.6 C 4.8 km/h
716 28-11-2014 20:30:00 5.6 C 6.36 g/m*3 5.6 C 3.2 km/h
717 28-11-2014 20:35:00 5.6 C 6.36 g/m*3 5.6 C 1.6 km/h
718 28-11-2014 20:40:00 5.6 C 6.36 g/m*3 5.6 C 3.2 km/h
719 28-11-2014 20:45:00 5.6 C 6.36 g/m*3 5.6 C 4.8 km/h
720 28-11-2014 20:50:00 5.6 C 6.36 g/m*3 5.6 C 3.2 km/h
721 28-11-2014 20:55:00 5.6 C 6.36 g/m*3 5.6 C 4.8 km/h
722 28-11-2014 21:00:00 5.6 C 6.36 g/m*3 5.6 C 4.8 km/h
723 28-11-2014 21:05:00 5.6 C 6.36 g/m*3 5.6 C 1.6 km/h
724 28-11-2014 21:10:00 5.6 C 6.36 g/m*3 5.6 C 3.2 km/h
725 28-11-2014 21:15:00 5.6 C 6.36 g/m*3 5.6 C 0 km/h
Sensor: Nr:Datum:Temp:Abs-Feuchte:Windchill:Wind:
Aussen-T/F 726 28-11-2014 21:20:00 5.6 C 6.36 g/m*3 5.6 C 3.2 km/h
727 28-11-2014 21:25:00 5.6 C 6.36 g/m*3 5.6 C 3.2 km/h
728 28-11-2014 21:30:00 5.6 C 6.43 g/m*3 5.6 C 3.2 km/h
729 28-11-2014 21:35:00 5.6 C 6.36 g/m*3 5.6 C 1.6 km/h
730 28-11-2014 21:40:00 5.5 C 6.32 g/m*3 5.5 C 1.6 km/h
731 28-11-2014 21:45:00 5.5 C 6.32 g/m*3 4.17 C 6.4 km/h
732 28-11-2014 21:50:00 5.5 C 6.32 g/m*3 5.5 C 3.2 km/h
733 28-11-2014 21:55:00 5.5 C 6.25 g/m*3 4.17 C 6.4 km/h
734 28-11-2014 22:00:00 5.5 C 6.32 g/m*3 4.17 C 6.4 km/h
735 28-11-2014 22:05:00 5.4 C 6.28 g/m*3 4.06 C 6.4 km/h
736 28-11-2014 22:10:00 5.4 C 6.28 g/m*3 5.4 C 1.6 km/h
737 28-11-2014 22:15:00 5.4 C 6.28 g/m*3 5.4 C 1.6 km/h
738 28-11-2014 22:20:00 5.4 C 6.28 g/m*3 5.4 C 3.2 km/h
739 28-11-2014 22:25:00 5.4 C 6.28 g/m*3 4.06 C 6.4 km/h
740 28-11-2014 22:30:00 5.4 C 6.28 g/m*3 5.4 C 4.8 km/h
741 28-11-2014 22:35:00 5.4 C 6.28 g/m*3 5.4 C 3.2 km/h
742 28-11-2014 22:40:00 5.4 C 6.28 g/m*3 5.4 C 4.8 km/h
743 28-11-2014 22:45:00 5.3 C 6.24 g/m*3 5.3 C 4.8 km/h
744 28-11-2014 22:50:00 5.3 C 6.24 g/m*3 5.3 C 3.2 km/h
745 28-11-2014 22:55:00 5.3 C 6.24 g/m*3 3.94 C 6.4 km/h
746 28-11-2014 23:00:00 5.3 C 6.24 g/m*3 3.08 C 9.7 km/h
747 28-11-2014 23:05:00 5.3 C 6.24 g/m*3 3.08 C 9.7 km/h
748 28-11-2014 23:10:00 5.3 C 6.24 g/m*3 3.46 C 8.1 km/h
749 28-11-2014 23:15:00 5.3 C 6.24 g/m*3 3.46 C 8.1 km/h
750 28-11-2014 23:20:00 5.3 C 6.24 g/m*3 5.3 C 3.2 km/h
Sensor: Nr:Datum:Temp:Abs-Feuchte:Windchill:Wind:
Aussen-T/F 751 28-11-2014 23:25:00 5.3 C 6.17 g/m*3 5.3 C 1.6 km/h
752 28-11-2014 23:30:00 5.3 C 6.17 g/m*3 3.08 C 9.7 km/h
753 28-11-2014 23:35:00 5.3 C 6.24 g/m*3 5.3 C 3.2 km/h
754 28-11-2014 23:40:00 5.3 C 6.17 g/m*3 5.3 C 0 km/h
755 28-11-2014 23:45:00 5.2 C 6.2 g/m*3 5.2 C 4.8 km/h
756 28-11-2014 23:50:00 5.2 C 6.2 g/m*3 3.82 C 6.4 km/h
757 28-11-2014 23:55:00 5.2 C 6.2 g/m*3 5.2 C 1.6 km/h
758 29-11-2014 00:00:00 5.2 C 6.2 g/m*3 5.2 C 4.8 km/h
759 29-11-2014 00:05:00 5.2 C 6.2 g/m*3 5.2 C 3.2 km/h
760 29-11-2014 00:10:00 5.2 C 6.2 g/m*3 5.2 C 3.2 km/h
761 29-11-2014 00:15:00 5.2 C 6.2 g/m*3 5.2 C 0 km/h
762 29-11-2014 00:20:00 5.1 C 6.16 g/m*3 5.1 C 4.8 km/h
763 29-11-2014 00:25:00 5.1 C 6.16 g/m*3 5.1 C 3.2 km/h
764 29-11-2014 00:30:00 5.1 C 6.16 g/m*3 3.23 C 8.1 km/h
765 29-11-2014 00:35:00 5.1 C 6.16 g/m*3 5.1 C 4.8 km/h
766 29-11-2014 00:40:00 5.1 C 6.16 g/m*3 3.23 C 8.1 km/h
767 29-11-2014 00:45:00 5.1 C 6.16 g/m*3 5.1 C 3.2 km/h
768 29-11-2014 00:50:00 5 C 6.12 g/m*3 3.59 C 6.4 km/h
769 29-11-2014 00:55:00 5 C 6.12 g/m*3 5 C 4.8 km/h
770 29-11-2014 01:00:00 5 C 6.12 g/m*3 3.59 C 6.4 km/h
771 29-11-2014 01:05:00 5 C 6.12 g/m*3 3.11 C 8.1 km/h
772 29-11-2014 01:10:00 5 C 6.12 g/m*3 3.59 C 6.4 km/h
773 29-11-2014 01:15:00 5 C 6.12 g/m*3 5 C 1.6 km/h
774 29-11-2014 01:20:00 5 C 6.12 g/m*3 5 C 3.2 km/h
775 29-11-2014 01:25:00 4.9 C 6.08 g/m*3 4.9 C 4.8 km/h
Sensor: Nr:Datum:Temp:Abs-Feuchte:Windchill:Wind:
Aussen-T/F 776 29-11-2014 01:30:00 4.9 C 6.08 g/m*3 4.9 C 3.2 km/h
777 29-11-2014 01:35:00 4.9 C 6.08 g/m*3 3.48 C 6.4 km/h
778 29-11-2014 01:40:00 4.9 C 6.08 g/m*3 4.9 C 0 km/h
779 29-11-2014 01:45:00 4.9 C 6.08 g/m*3 4.9 C 4.8 km/h
780 29-11-2014 01:50:00 4.9 C 6.08 g/m*3 3.48 C 6.4 km/h
781 29-11-2014 01:55:00 4.9 C 6.08 g/m*3 2.99 C 8.1 km/h
782 29-11-2014 02:00:00 4.8 C 5.97 g/m*3 4.8 C 3.2 km/h
783 29-11-2014 02:05:00 4.8 C 5.97 g/m*3 4.8 C 4.8 km/h
784 29-11-2014 02:10:00 4.8 C 5.97 g/m*3 4.8 C 4.8 km/h
785 29-11-2014 02:15:00 4.8 C 6.04 g/m*3 2.49 C 9.7 km/h
786 29-11-2014 02:20:00 4.8 C 6.04 g/m*3 3.36 C 6.4 km/h
787 29-11-2014 02:25:00 4.7 C 5.93 g/m*3 4.7 C 3.2 km/h
788 29-11-2014 02:30:00 4.7 C 5.93 g/m*3 4.7 C 3.2 km/h
789 29-11-2014 02:35:00 4.8 C 5.97 g/m*3 3.36 C 6.4 km/h
790 29-11-2014 02:40:00 4.7 C 5.93 g/m*3 4.7 C 4.8 km/h
791 29-11-2014 02:45:00 4.8 C 5.97 g/m*3 3.36 C 6.4 km/h
792 29-11-2014 02:50:00 4.7 C 5.93 g/m*3 4.7 C 3.2 km/h
793 29-11-2014 02:55:00 4.7 C 6 g/m*3 4.7 C 4.8 km/h
794 29-11-2014 03:00:00 4.7 C 6 g/m*3 4.7 C 4.8 km/h
795 29-11-2014 03:05:00 4.6 C 5.89 g/m*3 3.13 C 6.4 km/h
796 29-11-2014 03:10:00 4.6 C 5.96 g/m*3 2.64 C 8.1 km/h
797 29-11-2014 03:15:00 4.6 C 5.89 g/m*3 4.6 C 3.2 km/h
798 29-11-2014 03:20:00 4.6 C 5.96 g/m*3 3.13 C 6.4 km/h
799 29-11-2014 03:25:00 4.6 C 5.96 g/m*3 3.13 C 6.4 km/h
800 29-11-2014 03:30:00 4.5 C 5.85 g/m*3 3.02 C 6.4 km/h
Sensor: Nr:Datum:Temp:Abs-Feuchte:Windchill:Wind:
Aussen-T/F 801 29-11-2014 03:35:00 4.5 C 5.85 g/m*3 4.5 C 1.6 km/h
802 29-11-2014 03:40:00 4.5 C 5.85 g/m*3 4.5 C 1.6 km/h
803 29-11-2014 03:45:00 4.5 C 5.85 g/m*3 3.02 C 6.4 km/h
804 29-11-2014 03:50:00 4.5 C 5.92 g/m*3 4.5 C 4.8 km/h
805 29-11-2014 03:55:00 4.4 C 5.88 g/m*3 4.4 C 0 km/h
806 29-11-2014 04:00:00 4.4 C 5.88 g/m*3 4.4 C 0 km/h
807 29-11-2014 04:05:00 4.4 C 5.88 g/m*3 4.4 C 3.2 km/h
808 29-11-2014 04:10:00 4.4 C 5.88 g/m*3 4.4 C 0 km/h
809 29-11-2014 04:15:00 4.4 C 5.88 g/m*3 4.4 C 1.6 km/h
810 29-11-2014 04:20:00 4.4 C 5.88 g/m*3 4.4 C 0 km/h
811 29-11-2014 04:25:00 4.5 C 5.92 g/m*3 4.5 C 3.2 km/h
812 29-11-2014 04:30:00 4.5 C 5.92 g/m*3 4.5 C 1.6 km/h
813 29-11-2014 04:35:00 4.4 C 5.88 g/m*3 4.4 C 0 km/h
814 29-11-2014 04:40:00 4.5 C 5.92 g/m*3 4.5 C 1.6 km/h
815 29-11-2014 04:45:00 4.5 C 5.92 g/m*3 4.5 C 4.8 km/h
816 29-11-2014 04:50:00 4.4 C 5.81 g/m*3 4.4 C 3.2 km/h
817 29-11-2014 04:55:00 4.4 C 5.81 g/m*3 4.4 C 1.6 km/h
818 29-11-2014 05:00:00 4.4 C 5.81 g/m*3 4.4 C 3.2 km/h
819 29-11-2014 05:05:00 4.4 C 5.81 g/m*3 4.4 C 0 km/h
820 29-11-2014 05:10:00 4.4 C 5.81 g/m*3 4.4 C 3.2 km/h
821 29-11-2014 05:15:00 4.4 C 5.81 g/m*3 4.4 C 3.2 km/h
822 29-11-2014 05:20:00 4.4 C 5.81 g/m*3 4.4 C 1.6 km/h
823 29-11-2014 05:25:00 4.4 C 5.81 g/m*3 4.4 C 4.8 km/h
824 29-11-2014 05:30:00 4.4 C 5.81 g/m*3 4.4 C 1.6 km/h
825 29-11-2014 05:35:00 4.4 C 5.81 g/m*3 2.9 C 6.4 km/h
Sensor: Nr:Datum:Temp:Abs-Feuchte:Windchill:Wind:
Aussen-T/F 826 29-11-2014 05:40:00 4.4 C 5.81 g/m*3 4.4 C 3.2 km/h
827 29-11-2014 05:45:00 4.3 C 5.77 g/m*3 4.3 C 3.2 km/h
828 29-11-2014 05:50:00 4.3 C 5.77 g/m*3 4.3 C 1.6 km/h
829 29-11-2014 05:55:00 4.3 C 5.77 g/m*3 4.3 C 1.6 km/h
830 29-11-2014 06:00:00 4.3 C 5.77 g/m*3 4.3 C 3.2 km/h
831 29-11-2014 06:05:00 4.3 C 5.77 g/m*3 4.3 C 4.8 km/h
832 29-11-2014 06:10:00 4.3 C 5.84 g/m*3 4.3 C 4.8 km/h
833 29-11-2014 06:15:00 4.3 C 5.84 g/m*3 4.3 C 3.2 km/h
834 29-11-2014 06:20:00 4.3 C 5.84 g/m*3 4.3 C 3.2 km/h
835 29-11-2014 06:25:00 4.3 C 5.77 g/m*3 4.3 C 0 km/h
836 29-11-2014 06:30:00 4.3 C 5.84 g/m*3 4.3 C 1.6 km/h
837 29-11-2014 06:35:00 4.3 C 5.84 g/m*3 4.3 C 4.8 km/h
838 29-11-2014 06:40:00 4.2 C 5.73 g/m*3 4.2 C 1.6 km/h
839 29-11-2014 06:45:00 4.2 C 5.8 g/m*3 4.2 C 1.6 km/h
840 29-11-2014 06:50:00 4.3 C 5.84 g/m*3 4.3 C 4.8 km/h
841 29-11-2014 06:55:00 4.3 C 5.84 g/m*3 4.3 C 3.2 km/h
842 29-11-2014 07:00:00 4.2 C 5.8 g/m*3 4.2 C 1.6 km/h
843 29-11-2014 07:05:00 4.2 C 5.8 g/m*3 4.2 C 3.2 km/h
844 29-11-2014 07:10:00 4.2 C 5.8 g/m*3 4.2 C 3.2 km/h
845 29-11-2014 07:15:00 4.2 C 5.8 g/m*3 4.2 C 4.8 km/h
846 29-11-2014 07:20:00 4.2 C 5.8 g/m*3 4.2 C 1.6 km/h
847 29-11-2014 07:25:00 4.2 C 5.8 g/m*3 4.2 C 3.2 km/h
848 29-11-2014 07:30:00 4.2 C 5.8 g/m*3 4.2 C 0 km/h
849 29-11-2014 07:35:00 4.2 C 5.8 g/m*3 4.2 C 1.6 km/h
850 29-11-2014 07:40:00 4.2 C 5.8 g/m*3 4.2 C 1.6 km/h
Sensor: Nr:Datum:Temp:Abs-Feuchte:Windchill:Wind:
Aussen-T/F 851 29-11-2014 07:45:00 4.2 C 5.8 g/m*3 4.2 C 3.2 km/h
852 29-11-2014 07:50:00 4.1 C 5.76 g/m*3 4.1 C 3.2 km/h
853 29-11-2014 07:55:00 4.1 C 5.76 g/m*3 4.1 C 3.2 km/h
854 29-11-2014 08:00:00 4.1 C 5.76 g/m*3 4.1 C 4.8 km/h
855 29-11-2014 08:05:00 4.1 C 5.76 g/m*3 4.1 C 4.8 km/h
856 29-11-2014 08:10:00 4.1 C 5.76 g/m*3 4.1 C 4.8 km/h
857 29-11-2014 08:15:00 4.1 C 5.76 g/m*3 2.55 C 6.4 km/h
858 29-11-2014 08:20:00 4.1 C 5.76 g/m*3 4.1 C 3.2 km/h
859 29-11-2014 08:40:00 4.2 C 5.8 g/m*3 4.2 C 3.2 km/h
860 29-11-2014 08:45:00 4.1 C 5.76 g/m*3 4.1 C 1.6 km/h
861 29-11-2014 08:50:00 4.2 C 5.8 g/m*3 4.2 C 3.2 km/h
862 29-11-2014 08:55:00 4.2 C 5.8 g/m*3 4.2 C 0 km/h
863 29-11-2014 09:00:00 4.2 C 5.8 g/m*3 4.2 C 1.6 km/h
864 29-11-2014 09:05:00 4.2 C 5.8 g/m*3 4.2 C 1.6 km/h
865 29-11-2014 09:10:00 4.2 C 5.8 g/m*3 2.67 C 6.4 km/h
866 29-11-2014 09:15:00 4.2 C 5.73 g/m*3 4.2 C 4.8 km/h
867 29-11-2014 09:20:00 4.2 C 5.8 g/m*3 4.2 C 3.2 km/h
868 29-11-2014 09:25:00 4.2 C 5.8 g/m*3 4.2 C 0 km/h
869 29-11-2014 09:30:00 4.2 C 5.8 g/m*3 2.67 C 6.4 km/h
870 29-11-2014 09:35:00 4.2 C 5.8 g/m*3 1.77 C 9.7 km/h
871 29-11-2014 09:40:00 4.2 C 5.8 g/m*3 4.2 C 4.8 km/h
872 29-11-2014 09:45:00 4.2 C 5.8 g/m*3 4.2 C 3.2 km/h
873 29-11-2014 09:50:00 4.2 C 5.73 g/m*3 4.2 C 1.6 km/h
874 29-11-2014 09:55:00 4.2 C 5.73 g/m*3 2.67 C 6.4 km/h
875 29-11-2014 10:00:00 4.2 C 5.73 g/m*3 4.2 C 1.6 km/h
Sensor: Nr:Datum:Temp:Abs-Feuchte:Windchill:Wind:
Aussen-T/F 876 29-11-2014 10:05:00 4.2 C 5.73 g/m*3 4.2 C 4.8 km/h
877 29-11-2014 10:10:00 4.2 C 5.73 g/m*3 2.67 C 6.4 km/h
878 29-11-2014 10:15:00 4.2 C 5.8 g/m*3 2.67 C 6.4 km/h
879 29-11-2014 10:20:00 4.2 C 5.73 g/m*3 4.2 C 3.2 km/h
880 29-11-2014 10:25:00 4.2 C 5.73 g/m*3 4.2 C 4.8 km/h
881 29-11-2014 10:30:00 4.2 C 5.73 g/m*3 4.2 C 4.8 km/h
882 29-11-2014 10:35:00 4.3 C 5.77 g/m*3 2.29 C 8.1 km/h
883 29-11-2014 10:40:00 4.3 C 5.77 g/m*3 2.78 C 6.4 km/h
884 29-11-2014 10:45:00 4.2 C 5.73 g/m*3 2.67 C 6.4 km/h
885 29-11-2014 10:50:00 4.3 C 5.77 g/m*3 2.78 C 6.4 km/h
886 29-11-2014 10:55:00 4.3 C 5.77 g/m*3 4.3 C 1.6 km/h
887 29-11-2014 11:00:00 4.3 C 5.77 g/m*3 4.3 C 4.8 km/h
888 29-11-2014 11:05:00 4.3 C 5.77 g/m*3 2.78 C 6.4 km/h
889 29-11-2014 11:10:00 4.3 C 5.77 g/m*3 2.78 C 6.4 km/h
890 29-11-2014 11:15:00 4.4 C 5.81 g/m*3 4.4 C 3.2 km/h
891 29-11-2014 11:20:00 4.4 C 5.81 g/m*3 4.4 C 4.8 km/h
892 29-11-2014 11:25:00 4.4 C 5.81 g/m*3 4.4 C 1.6 km/h
893 29-11-2014 11:30:00 4.4 C 5.81 g/m*3 2.9 C 6.4 km/h
894 29-11-2014 11:35:00 4.4 C 5.81 g/m*3 2.9 C 6.4 km/h
895 29-11-2014 11:40:00 4.5 C 5.85 g/m*3 4.5 C 4.8 km/h
896 29-11-2014 11:45:00 4.5 C 5.85 g/m*3 4.5 C 4.8 km/h
897 29-11-2014 11:50:00 4.5 C 5.78 g/m*3 4.5 C 4.8 km/h
898 29-11-2014 11:55:00 4.6 C 5.89 g/m*3 4.6 C 3.2 km/h
899 29-11-2014 12:00:00 4.6 C 5.89 g/m*3 2.25 C 9.7 km/h
900 29-11-2014 12:05:00 4.6 C 5.82 g/m*3 3.13 C 6.4 km/h
Sensor: Nr:Datum:Temp:Abs-Feuchte:Windchill:Wind:
Aussen-T/F 901 29-11-2014 12:10:00 4.6 C 5.82 g/m*3 4.6 C 0 km/h
902 29-11-2014 12:15:00 4.6 C 5.89 g/m*3 4.6 C 3.2 km/h
903 29-11-2014 12:20:00 4.7 C 5.86 g/m*3 4.7 C 0 km/h
904 29-11-2014 12:25:00 4.7 C 5.86 g/m*3 4.7 C 1.6 km/h
905 29-11-2014 12:30:00 4.7 C 5.86 g/m*3 4.7 C 1.6 km/h
906 29-11-2014 12:35:00 4.7 C 5.86 g/m*3 4.7 C 0 km/h
907 29-11-2014 12:40:00 4.7 C 5.86 g/m*3 4.7 C 3.2 km/h
908 29-11-2014 12:45:00 4.7 C 5.86 g/m*3 3.25 C 6.4 km/h
909 29-11-2014 12:50:00 4.7 C 5.86 g/m*3 4.7 C 4.8 km/h
910 29-11-2014 12:55:00 4.7 C 5.86 g/m*3 4.7 C 3.2 km/h
911 29-11-2014 13:00:00 4.7 C 5.86 g/m*3 4.7 C 1.6 km/h
912 29-11-2014 13:05:00 4.7 C 5.86 g/m*3 4.7 C 4.8 km/h
913 29-11-2014 13:10:00 4.8 C 5.97 g/m*3 4.8 C 4.8 km/h
914 29-11-2014 13:15:00 4.8 C 5.9 g/m*3 3.36 C 6.4 km/h
915 29-11-2014 13:20:00 4.8 C 5.9 g/m*3 4.8 C 1.6 km/h
916 29-11-2014 13:25:00 4.8 C 5.9 g/m*3 4.8 C 3.2 km/h
917 29-11-2014 13:30:00 4.8 C 5.9 g/m*3 3.36 C 6.4 km/h
918 29-11-2014 13:35:00 4.8 C 5.9 g/m*3 4.8 C 4.8 km/h
919 29-11-2014 13:40:00 4.8 C 5.9 g/m*3 4.8 C 3.2 km/h
920 29-11-2014 13:45:00 4.8 C 5.9 g/m*3 4.8 C 1.6 km/h
921 29-11-2014 13:50:00 4.8 C 5.9 g/m*3 4.8 C 3.2 km/h
922 29-11-2014 13:55:00 4.8 C 5.83 g/m*3 4.8 C 4.8 km/h
923 29-11-2014 14:00:00 4.8 C 5.9 g/m*3 4.8 C 3.2 km/h
924 29-11-2014 14:05:00 4.8 C 5.9 g/m*3 4.8 C 1.6 km/h
925 29-11-2014 14:10:00 4.8 C 5.9 g/m*3 4.8 C 3.2 km/h
Sensor: Nr:Datum:Temp:Abs-Feuchte:Windchill:Wind:
Aussen-T/F 926 29-11-2014 14:15:00 4.8 C 5.9 g/m*3 4.8 C 4.8 km/h
927 29-11-2014 14:20:00 4.8 C 5.9 g/m*3 4.8 C 3.2 km/h
928 29-11-2014 14:25:00 4.8 C 5.9 g/m*3 4.8 C 3.2 km/h
929 29-11-2014 14:30:00 4.8 C 5.9 g/m*3 4.8 C 4.8 km/h
930 29-11-2014 14:35:00 4.8 C 5.9 g/m*3 4.8 C 1.6 km/h
931 29-11-2014 14:40:00 4.8 C 5.9 g/m*3 4.8 C 4.8 km/h
932 29-11-2014 14:45:00 4.8 C 5.97 g/m*3 4.8 C 4.8 km/h
933 29-11-2014 14:50:00 4.8 C 5.9 g/m*3 2.15 C 11.3 km/h
934 29-11-2014 14:55:00 4.7 C 5.86 g/m*3 4.7 C 3.2 km/h
935 29-11-2014 15:00:00 4.7 C 5.86 g/m*3 3.25 C 6.4 km/h
936 29-11-2014 15:05:00 4.7 C 5.93 g/m*3 4.7 C 3.2 km/h
937 29-11-2014 15:10:00 4.7 C 5.93 g/m*3 4.7 C 4.8 km/h
938 29-11-2014 15:15:00 4.7 C 5.93 g/m*3 4.7 C 3.2 km/h
939 29-11-2014 15:20:00 4.7 C 5.93 g/m*3 4.7 C 1.6 km/h
940 29-11-2014 15:25:00 4.7 C 5.86 g/m*3 4.7 C 1.6 km/h
941 29-11-2014 15:30:00 4.7 C 5.93 g/m*3 4.7 C 3.2 km/h
942 29-11-2014 15:35:00 4.7 C 5.93 g/m*3 4.7 C 1.6 km/h
943 29-11-2014 15:40:00 4.7 C 5.93 g/m*3 4.7 C 1.6 km/h
944 29-11-2014 15:45:00 4.7 C 5.93 g/m*3 4.7 C 0 km/h
945 29-11-2014 15:50:00 4.7 C 5.93 g/m*3 4.7 C 1.6 km/h
946 29-11-2014 15:55:00 4.7 C 5.93 g/m*3 4.7 C 3.2 km/h
947 29-11-2014 16:00:00 4.7 C 5.93 g/m*3 4.7 C 3.2 km/h
948 29-11-2014 16:05:00 4.7 C 5.93 g/m*3 4.7 C 1.6 km/h
949 29-11-2014 16:10:00 4.6 C 5.89 g/m*3 4.6 C 1.6 km/h
950 29-11-2014 16:15:00 4.6 C 5.89 g/m*3 4.6 C 0 km/h
Sensor: Nr:Datum:Temp:Abs-Feuchte:Windchill:Wind:
Aussen-T/F 951 29-11-2014 16:20:00 4.6 C 5.89 g/m*3 4.6 C 3.2 km/h
952 29-11-2014 16:25:00 4.6 C 5.89 g/m*3 4.6 C 3.2 km/h
953 29-11-2014 16:30:00 4.6 C 5.96 g/m*3 4.6 C 4.8 km/h
954 29-11-2014 16:35:00 4.6 C 5.96 g/m*3 4.6 C 3.2 km/h
955 29-11-2014 16:40:00 4.6 C 5.96 g/m*3 4.6 C 1.6 km/h
956 29-11-2014 16:45:00 4.6 C 5.96 g/m*3 4.6 C 3.2 km/h
957 29-11-2014 16:50:00 4.6 C 5.96 g/m*3 4.6 C 0 km/h
958 29-11-2014 16:55:00 4.6 C 5.96 g/m*3 4.6 C 0 km/h
959 29-11-2014 17:00:00 4.6 C 5.96 g/m*3 4.6 C 0 km/h
960 29-11-2014 17:05:00 4.6 C 5.96 g/m*3 4.6 C 0 km/h
961 29-11-2014 17:10:00 4.6 C 5.96 g/m*3 4.6 C 0 km/h
962 29-11-2014 17:15:00 4.6 C 5.96 g/m*3 4.6 C 0 km/h
963 29-11-2014 17:20:00 4.6 C 5.96 g/m*3 4.6 C 0 km/h
964 29-11-2014 17:25:00 4.6 C 5.96 g/m*3 4.6 C 0 km/h
965 29-11-2014 17:30:00 4.6 C 5.96 g/m*3 4.6 C 0 km/h
966 29-11-2014 17:35:00 4.6 C 5.96 g/m*3 4.6 C 0 km/h
967 29-11-2014 17:40:00 4.6 C 5.96 g/m*3 4.6 C 1.6 km/h
968 29-11-2014 17:45:00 4.6 C 5.96 g/m*3 4.6 C 3.2 km/h
969 29-11-2014 17:50:00 4.5 C 5.85 g/m*3 4.5 C 3.2 km/h
970 29-11-2014 17:55:00 4.5 C 5.85 g/m*3 4.5 C 1.6 km/h
971 29-11-2014 18:00:00 4.5 C 5.92 g/m*3 4.5 C 1.6 km/h
972 29-11-2014 18:05:00 4.5 C 5.85 g/m*3 4.5 C 1.6 km/h
973 29-11-2014 18:10:00 4.5 C 5.85 g/m*3 4.5 C 0 km/h
974 29-11-2014 18:15:00 4.5 C 5.85 g/m*3 4.5 C 1.6 km/h
975 29-11-2014 18:20:00 4.5 C 5.85 g/m*3 4.5 C 3.2 km/h
Sensor: Nr:Datum:Temp:Abs-Feuchte:Windchill:Wind:
Aussen-T/F 976 29-11-2014 18:25:00 4.5 C 5.85 g/m*3 4.5 C 1.6 km/h
977 29-11-2014 18:30:00 4.5 C 5.85 g/m*3 4.5 C 4.8 km/h
978 29-11-2014 18:35:00 4.4 C 5.81 g/m*3 4.4 C 1.6 km/h
979 29-11-2014 18:40:00 4.4 C 5.81 g/m*3 4.4 C 4.8 km/h
980 29-11-2014 18:45:00 4.4 C 5.81 g/m*3 2.9 C 6.4 km/h
981 29-11-2014 18:50:00 4.4 C 5.81 g/m*3 4.4 C 0 km/h
982 29-11-2014 18:55:00 4.3 C 5.77 g/m*3 4.3 C 1.6 km/h
983 29-11-2014 19:00:00 4.3 C 5.77 g/m*3 4.3 C 0 km/h
984 29-11-2014 19:05:00 4.3 C 5.77 g/m*3 4.3 C 1.6 km/h
985 29-11-2014 19:10:00 4.3 C 5.77 g/m*3 4.3 C 1.6 km/h
986 29-11-2014 19:15:00 4.3 C 5.77 g/m*3 4.3 C 0 km/h
987 29-11-2014 19:20:00 4.3 C 5.77 g/m*3 4.3 C 1.6 km/h
988 29-11-2014 19:25:00 4.3 C 5.77 g/m*3 4.3 C 3.2 km/h
989 29-11-2014 19:30:00 4.3 C 5.77 g/m*3 4.3 C 1.6 km/h
990 29-11-2014 19:35:00 4.3 C 5.84 g/m*3 4.3 C 4.8 km/h
991 29-11-2014 19:40:00 4.3 C 5.84 g/m*3 4.3 C 4.8 km/h
992 29-11-2014 19:45:00 4.3 C 5.84 g/m*3 4.3 C 4.8 km/h
993 29-11-2014 19:50:00 4.3 C 5.84 g/m*3 4.3 C 1.6 km/h
994 29-11-2014 19:55:00 4.3 C 5.84 g/m*3 4.3 C 0 km/h
995 29-11-2014 20:00:00 4.3 C 5.84 g/m*3 4.3 C 1.6 km/h
996 29-11-2014 20:05:00 4.3 C 5.84 g/m*3 4.3 C 1.6 km/h
997 29-11-2014 20:10:00 4.3 C 5.84 g/m*3 4.3 C 1.6 km/h
998 29-11-2014 20:15:00 4.2 C 5.8 g/m*3 4.2 C 4.8 km/h
999 29-11-2014 20:20:00 4.2 C 5.8 g/m*3 4.2 C 3.2 km/h
1000 29-11-2014 20:25:00 4.3 C 5.84 g/m*3 4.3 C 0 km/h
Sensor: Nr:Datum:Temp:Abs-Feuchte:Windchill:Wind:
Aussen-T/F 1001 29-11-2014 20:30:00 4.3 C 5.84 g/m*3 4.3 C 1.6 km/h
1002 29-11-2014 20:35:00 4.3 C 5.84 g/m*3 4.3 C 3.2 km/h
1003 29-11-2014 20:40:00 4.3 C 5.84 g/m*3 4.3 C 3.2 km/h
1004 29-11-2014 20:45:00 4.2 C 5.8 g/m*3 4.2 C 3.2 km/h
1005 29-11-2014 20:50:00 4.2 C 5.8 g/m*3 2.67 C 6.4 km/h
1006 29-11-2014 20:55:00 4.2 C 5.8 g/m*3 2.17 C 8.1 km/h
1007 29-11-2014 21:00:00 4.2 C 5.8 g/m*3 4.2 C 3.2 km/h
1008 29-11-2014 21:05:00 4.2 C 5.8 g/m*3 4.2 C 3.2 km/h
1009 29-11-2014 21:10:00 4.2 C 5.8 g/m*3 4.2 C 3.2 km/h
1010 29-11-2014 21:15:00 4.2 C 5.8 g/m*3 4.2 C 0 km/h
1011 29-11-2014 21:20:00 4.2 C 5.8 g/m*3 4.2 C 1.6 km/h
1012 29-11-2014 21:25:00 4.2 C 5.8 g/m*3 4.2 C 4.8 km/h
1013 29-11-2014 21:30:00 4.2 C 5.8 g/m*3 4.2 C 0 km/h
1014 29-11-2014 21:35:00 4.2 C 5.8 g/m*3 4.2 C 1.6 km/h
1015 29-11-2014 21:40:00 4.2 C 5.8 g/m*3 2.67 C 6.4 km/h
1016 29-11-2014 21:45:00 4.1 C 5.76 g/m*3 4.1 C 4.8 km/h
1017 29-11-2014 21:50:00 4.1 C 5.76 g/m*3 4.1 C 1.6 km/h
1018 29-11-2014 21:55:00 4.1 C 5.76 g/m*3 4.1 C 1.6 km/h
1019 29-11-2014 22:00:00 4.1 C 5.76 g/m*3 4.1 C 3.2 km/h
1020 29-11-2014 22:05:00 4.1 C 5.76 g/m*3 4.1 C 1.6 km/h
1021 29-11-2014 22:10:00 4.1 C 5.76 g/m*3 4.1 C 3.2 km/h
1022 29-11-2014 22:15:00 4.1 C 5.76 g/m*3 4.1 C 0 km/h
1023 29-11-2014 22:20:00 4.1 C 5.76 g/m*3 4.1 C 0 km/h
1024 29-11-2014 22:25:00 4.1 C 5.76 g/m*3 4.1 C 1.6 km/h
1025 29-11-2014 22:30:00 4.1 C 5.76 g/m*3 4.1 C 1.6 km/h
Sensor: Nr:Datum:Temp:Abs-Feuchte:Windchill:Wind:
Aussen-T/F 1026 29-11-2014 22:35:00 4.1 C 5.76 g/m*3 4.1 C 3.2 km/h
1027 29-11-2014 22:40:00 4.1 C 5.76 g/m*3 4.1 C 4.8 km/h
1028 29-11-2014 22:45:00 4.1 C 5.76 g/m*3 4.1 C 1.6 km/h
1029 29-11-2014 22:50:00 4.1 C 5.76 g/m*3 4.1 C 1.6 km/h
1030 29-11-2014 22:55:00 4.1 C 5.76 g/m*3 4.1 C 0 km/h
1031 29-11-2014 23:00:00 4.1 C 5.76 g/m*3 4.1 C 3.2 km/h
1032 29-11-2014 23:05:00 4.1 C 5.76 g/m*3 4.1 C 4.8 km/h
1033 29-11-2014 23:10:00 4.1 C 5.76 g/m*3 4.1 C 1.6 km/h
1034 29-11-2014 23:15:00 4.1 C 5.76 g/m*3 4.1 C 3.2 km/h
1035 29-11-2014 23:20:00 4.1 C 5.76 g/m*3 4.1 C 0 km/h
1036 29-11-2014 23:25:00 4.1 C 5.76 g/m*3 4.1 C 0 km/h
1037 29-11-2014 23:30:00 4.1 C 5.76 g/m*3 4.1 C 4.8 km/h
1038 29-11-2014 23:35:00 4 C 5.72 g/m*3 4 C 3.2 km/h
1039 29-11-2014 23:40:00 4 C 5.72 g/m*3 4 C 3.2 km/h
1040 29-11-2014 23:45:00 4 C 5.72 g/m*3 4 C 1.6 km/h
1041 29-11-2014 23:50:00 4 C 5.72 g/m*3 4 C 0 km/h
1042 29-11-2014 23:55:00 3.9 C 5.68 g/m*3 3.9 C 4.8 km/h
1043 30-11-2014 00:00:00 3.9 C 5.68 g/m*3 2.32 C 6.4 km/h
1044 30-11-2014 00:05:00 3.9 C 5.68 g/m*3 3.9 C 0 km/h
1045 30-11-2014 00:10:00 3.9 C 5.68 g/m*3 3.9 C 0 km/h
1046 30-11-2014 00:15:00 3.9 C 5.68 g/m*3 3.9 C 1.6 km/h
1047 30-11-2014 00:20:00 3.9 C 5.68 g/m*3 3.9 C 0 km/h
1048 30-11-2014 00:25:00 3.9 C 5.68 g/m*3 3.9 C 3.2 km/h
1049 30-11-2014 00:30:00 3.9 C 5.68 g/m*3 3.9 C 0 km/h
1050 30-11-2014 00:35:00 3.9 C 5.68 g/m*3 3.9 C 1.6 km/h
Sensor: Nr:Datum:Temp:Abs-Feuchte:Windchill:Wind:
Aussen-T/F 1051 30-11-2014 00:40:00 3.9 C 5.68 g/m*3 2.32 C 6.4 km/h
1052 30-11-2014 00:45:00 3.9 C 5.68 g/m*3 3.9 C 1.6 km/h
1053 30-11-2014 00:50:00 3.9 C 5.68 g/m*3 3.9 C 1.6 km/h
1054 30-11-2014 00:55:00 3.9 C 5.68 g/m*3 3.9 C 1.6 km/h
1055 30-11-2014 01:00:00 3.9 C 5.68 g/m*3 3.9 C 0 km/h
1056 30-11-2014 01:05:00 3.9 C 5.68 g/m*3 3.9 C 1.6 km/h
1057 30-11-2014 01:10:00 3.9 C 5.68 g/m*3 3.9 C 3.2 km/h
1058 30-11-2014 01:15:00 3.9 C 5.68 g/m*3 3.9 C 3.2 km/h
1059 30-11-2014 01:20:00 3.9 C 5.68 g/m*3 3.9 C 3.2 km/h
1060 30-11-2014 01:25:00 3.9 C 5.68 g/m*3 3.9 C 0 km/h
1061 30-11-2014 01:30:00 3.9 C 5.75 g/m*3 3.9 C 0 km/h
1062 30-11-2014 01:35:00 3.9 C 5.68 g/m*3 3.9 C 3.2 km/h
1063 30-11-2014 01:40:00 3.9 C 5.68 g/m*3 3.9 C 4.8 km/h
1064 30-11-2014 01:45:00 3.9 C 5.68 g/m*3 3.9 C 1.6 km/h
1065 30-11-2014 01:50:00 3.9 C 5.68 g/m*3 3.9 C 0 km/h
1066 30-11-2014 01:55:00 3.9 C 5.68 g/m*3 3.9 C 0 km/h
1067 30-11-2014 02:00:00 3.9 C 5.75 g/m*3 3.9 C 0 km/h
1068 30-11-2014 02:05:00 3.9 C 5.75 g/m*3 3.9 C 1.6 km/h
1069 30-11-2014 02:10:00 3.9 C 5.68 g/m*3 3.9 C 0 km/h
1070 30-11-2014 02:15:00 3.9 C 5.75 g/m*3 3.9 C 0 km/h
1071 30-11-2014 02:20:00 4 C 5.79 g/m*3 4 C 0 km/h
1072 30-11-2014 02:25:00 4 C 5.79 g/m*3 4 C 1.6 km/h
1073 30-11-2014 02:30:00 4 C 5.79 g/m*3 4 C 1.6 km/h
1074 30-11-2014 02:35:00 3.9 C 5.68 g/m*3 3.9 C 0 km/h
1075 30-11-2014 02:40:00 3.9 C 5.68 g/m*3 3.9 C 1.6 km/h
Sensor: Nr:Datum:Temp:Abs-Feuchte:Windchill:Wind:
Aussen-T/F 1076 30-11-2014 02:45:00 3.9 C 5.68 g/m*3 3.9 C 1.6 km/h
1077 30-11-2014 02:50:00 4 C 5.72 g/m*3 4 C 1.6 km/h
1078 30-11-2014 02:55:00 4 C 5.79 g/m*3 4 C 0 km/h
1079 30-11-2014 03:00:00 4 C 5.79 g/m*3 4 C 0 km/h
1080 30-11-2014 03:05:00 4 C 5.79 g/m*3 4 C 0 km/h
1081 30-11-2014 03:10:00 4 C 5.79 g/m*3 4 C 0 km/h
1082 30-11-2014 03:15:00 4 C 5.79 g/m*3 4 C 0 km/h
1083 30-11-2014 03:20:00 4 C 5.79 g/m*3 4 C 3.2 km/h
1084 30-11-2014 03:25:00 4 C 5.79 g/m*3 4 C 3.2 km/h
1085 30-11-2014 03:30:00 4 C 5.79 g/m*3 4 C 0 km/h
1086 30-11-2014 03:35:00 4 C 5.79 g/m*3 4 C 1.6 km/h
1087 30-11-2014 03:40:00 3.9 C 5.75 g/m*3 3.9 C 3.2 km/h
1088 30-11-2014 03:45:00 4 C 5.79 g/m*3 4 C 1.6 km/h
1089 30-11-2014 03:50:00 3.9 C 5.75 g/m*3 3.9 C 1.6 km/h
1090 30-11-2014 03:55:00 3.9 C 5.75 g/m*3 3.9 C 0 km/h
1091 30-11-2014 04:00:00 3.9 C 5.75 g/m*3 3.9 C 0 km/h
1092 30-11-2014 04:05:00 3.9 C 5.75 g/m*3 3.9 C 0 km/h
1093 30-11-2014 04:10:00 3.9 C 5.75 g/m*3 3.9 C 0 km/h
1094 30-11-2014 04:15:00 3.9 C 5.75 g/m*3 3.9 C 0 km/h
1095 30-11-2014 04:20:00 3.9 C 5.75 g/m*3 3.9 C 0 km/h
1096 30-11-2014 04:25:00 3.9 C 5.75 g/m*3 3.9 C 0 km/h
1097 30-11-2014 04:30:00 4 C 5.79 g/m*3 4 C 0 km/h
1098 30-11-2014 04:35:00 3.9 C 5.75 g/m*3 3.9 C 1.6 km/h
1099 30-11-2014 04:40:00 3.9 C 5.75 g/m*3 3.9 C 0 km/h
1100 30-11-2014 04:45:00 3.9 C 5.75 g/m*3 3.9 C 0 km/h
Sensor: Nr:Datum:Temp:Abs-Feuchte:Windchill:Wind:
Aussen-T/F 1101 30-11-2014 04:50:00 3.9 C 5.75 g/m*3 3.9 C 1.6 km/h
1102 30-11-2014 04:55:00 3.9 C 5.75 g/m*3 3.9 C 1.6 km/h
1103 30-11-2014 05:00:00 3.9 C 5.75 g/m*3 3.9 C 0 km/h
1104 30-11-2014 05:05:00 3.9 C 5.75 g/m*3 3.9 C 0 km/h
1105 30-11-2014 05:10:00 3.9 C 5.75 g/m*3 3.9 C 1.6 km/h
1106 30-11-2014 05:15:00 3.9 C 5.75 g/m*3 3.9 C 0 km/h
1107 30-11-2014 05:20:00 3.9 C 5.75 g/m*3 3.9 C 1.6 km/h
1108 30-11-2014 05:25:00 3.9 C 5.75 g/m*3 3.9 C 3.2 km/h
1109 30-11-2014 05:30:00 3.9 C 5.75 g/m*3 3.9 C 0 km/h
1110 30-11-2014 05:35:00 3.9 C 5.75 g/m*3 3.9 C 0 km/h
1111 30-11-2014 05:40:00 3.9 C 5.75 g/m*3 3.9 C 0 km/h
1112 30-11-2014 05:45:00 3.9 C 5.75 g/m*3 3.9 C 0 km/h
1113 30-11-2014 05:50:00 3.9 C 5.75 g/m*3 3.9 C 0 km/h
1114 30-11-2014 05:55:00 3.9 C 5.75 g/m*3 3.9 C 3.2 km/h
1115 30-11-2014 06:00:00 3.9 C 5.75 g/m*3 3.9 C 3.2 km/h
1116 30-11-2014 06:05:00 3.9 C 5.75 g/m*3 3.9 C 3.2 km/h
1117 30-11-2014 06:10:00 3.9 C 5.75 g/m*3 3.9 C 0 km/h
1118 30-11-2014 06:15:00 3.9 C 5.75 g/m*3 3.9 C 1.6 km/h
1119 30-11-2014 06:20:00 3.9 C 5.75 g/m*3 3.9 C 4.8 km/h
1120 30-11-2014 06:25:00 3.9 C 5.75 g/m*3 3.9 C 0 km/h
1121 30-11-2014 06:30:00 3.9 C 5.75 g/m*3 3.9 C 1.6 km/h
1122 30-11-2014 06:35:00 3.8 C 5.71 g/m*3 3.8 C 1.6 km/h
1123 30-11-2014 06:40:00 3.8 C 5.71 g/m*3 3.8 C 1.6 km/h
1124 30-11-2014 06:45:00 3.8 C 5.71 g/m*3 3.8 C 3.2 km/h
1125 30-11-2014 06:50:00 3.8 C 5.71 g/m*3 3.8 C 1.6 km/h
Sensor: Nr:Datum:Temp:Abs-Feuchte:Windchill:Wind:
Aussen-T/F 1126 30-11-2014 06:55:00 3.8 C 5.71 g/m*3 3.8 C 0 km/h
1127 30-11-2014 07:00:00 3.8 C 5.71 g/m*3 3.8 C 0 km/h
1128 30-11-2014 07:05:00 3.8 C 5.77 g/m*3 1.7 C 8.1 km/h
1129 30-11-2014 07:10:00 3.8 C 5.71 g/m*3 1.7 C 8.1 km/h
1130 30-11-2014 07:15:00 3.8 C 5.71 g/m*3 3.8 C 3.2 km/h
1131 30-11-2014 07:20:00 3.8 C 5.71 g/m*3 3.8 C 0 km/h
1132 30-11-2014 07:25:00 3.8 C 5.77 g/m*3 3.8 C 1.6 km/h
1133 30-11-2014 07:30:00 3.8 C 5.71 g/m*3 3.8 C 0 km/h
1134 30-11-2014 07:35:00 3.8 C 5.71 g/m*3 3.8 C 1.6 km/h
1135 30-11-2014 07:40:00 3.8 C 5.71 g/m*3 3.8 C 1.6 km/h
1136 30-11-2014 07:45:00 3.8 C 5.71 g/m*3 3.8 C 3.2 km/h
1137 30-11-2014 07:50:00 3.8 C 5.77 g/m*3 3.8 C 1.6 km/h
1138 30-11-2014 07:55:00 3.8 C 5.77 g/m*3 3.8 C 1.6 km/h
1139 30-11-2014 08:00:00 3.8 C 5.77 g/m*3 3.8 C 1.6 km/h
1140 30-11-2014 08:05:00 3.8 C 5.71 g/m*3 3.8 C 4.8 km/h
1141 30-11-2014 08:10:00 3.8 C 5.71 g/m*3 3.8 C 4.8 km/h
1142 30-11-2014 08:15:00 3.8 C 5.77 g/m*3 3.8 C 1.6 km/h
1143 30-11-2014 08:20:00 3.8 C 5.77 g/m*3 3.8 C 1.6 km/h
1144 30-11-2014 08:25:00 3.8 C 5.77 g/m*3 3.8 C 1.6 km/h
1145 30-11-2014 08:30:00 3.8 C 5.77 g/m*3 3.8 C 1.6 km/h
1146 30-11-2014 08:35:00 3.8 C 5.77 g/m*3 3.8 C 1.6 km/h
1147 30-11-2014 08:40:00 3.8 C 5.77 g/m*3 3.8 C 1.6 km/h
1148 30-11-2014 08:45:00 3.8 C 5.77 g/m*3 3.8 C 1.6 km/h
1149 30-11-2014 08:50:00 3.8 C 5.77 g/m*3 3.8 C 3.2 km/h
1150 30-11-2014 08:55:00 3.8 C 5.77 g/m*3 3.8 C 1.6 km/h
Sensor: Nr:Datum:Temp:Abs-Feuchte:Windchill:Wind:
Aussen-T/F 1151 30-11-2014 09:00:00 3.8 C 5.77 g/m*3 3.8 C 3.2 km/h
1152 30-11-2014 09:05:00 3.8 C 5.77 g/m*3 3.8 C 3.2 km/h
1153 30-11-2014 09:10:00 3.8 C 5.77 g/m*3 2.21 C 6.4 km/h
1154 30-11-2014 09:15:00 3.9 C 5.81 g/m*3 3.9 C 4.8 km/h
1155 30-11-2014 09:20:00 3.9 C 5.81 g/m*3 3.9 C 3.2 km/h
1156 30-11-2014 09:25:00 3.9 C 5.81 g/m*3 3.9 C 0 km/h
1157 30-11-2014 09:30:00 3.9 C 5.81 g/m*3 3.9 C 4.8 km/h
1158 30-11-2014 09:35:00 3.9 C 5.81 g/m*3 3.9 C 3.2 km/h
1159 30-11-2014 09:40:00 3.9 C 5.81 g/m*3 3.9 C 0 km/h
1160 30-11-2014 09:45:00 3.9 C 5.75 g/m*3 3.9 C 1.6 km/h
1161 30-11-2014 09:50:00 3.9 C 5.81 g/m*3 3.9 C 3.2 km/h
1162 30-11-2014 09:55:00 3.9 C 5.81 g/m*3 3.9 C 0 km/h
1163 30-11-2014 10:00:00 3.9 C 5.81 g/m*3 3.9 C 3.2 km/h
1164 30-11-2014 10:05:00 4 C 5.85 g/m*3 4 C 1.6 km/h
1165 30-11-2014 10:10:00 3.9 C 5.81 g/m*3 3.9 C 3.2 km/h
1166 30-11-2014 10:15:00 4 C 5.85 g/m*3 4 C 4.8 km/h
1167 30-11-2014 10:20:00 4 C 5.79 g/m*3 4 C 3.2 km/h
1168 30-11-2014 10:25:00 4 C 5.85 g/m*3 4 C 0 km/h
1169 30-11-2014 10:30:00 4 C 5.85 g/m*3 1.93 C 8.1 km/h
1170 30-11-2014 10:35:00 4 C 5.85 g/m*3 4 C 3.2 km/h
1171 30-11-2014 10:40:00 4.1 C 5.89 g/m*3 4.1 C 0 km/h
1172 30-11-2014 10:45:00 4.1 C 5.89 g/m*3 4.1 C 0 km/h
1173 30-11-2014 10:50:00 4.1 C 5.89 g/m*3 4.1 C 3.2 km/h
1174 30-11-2014 10:55:00 4.1 C 5.82 g/m*3 4.1 C 4.8 km/h
1175 30-11-2014 11:00:00 4.1 C 5.82 g/m*3 4.1 C 4.8 km/h
Sensor: Nr:Datum:Temp:Abs-Feuchte:Windchill:Wind:
Aussen-T/F 1176 30-11-2014 11:05:00 4 C 5.85 g/m*3 4 C 4.8 km/h
1177 30-11-2014 11:10:00 4.1 C 5.89 g/m*3 4.1 C 1.6 km/h
1178 30-11-2014 11:15:00 4.1 C 5.89 g/m*3 4.1 C 1.6 km/h
1179 30-11-2014 11:20:00 4.1 C 5.89 g/m*3 4.1 C 4.8 km/h
1180 30-11-2014 11:25:00 4.2 C 5.93 g/m*3 4.2 C 4.8 km/h
1181 30-11-2014 11:30:00 4.2 C 5.93 g/m*3 4.2 C 1.6 km/h
1182 30-11-2014 11:35:00 4.2 C 5.93 g/m*3 4.2 C 4.8 km/h
1183 30-11-2014 11:40:00 4.2 C 5.93 g/m*3 4.2 C 1.6 km/h
1184 30-11-2014 11:45:00 4.2 C 5.93 g/m*3 4.2 C 0 km/h
1185 30-11-2014 11:50:00 4.2 C 5.93 g/m*3 4.2 C 3.2 km/h
1186 30-11-2014 11:55:00 4.2 C 5.86 g/m*3 4.2 C 0 km/h
1187 30-11-2014 12:00:00 4.3 C 5.9 g/m*3 4.3 C 3.2 km/h
1188 30-11-2014 12:05:00 4.3 C 5.9 g/m*3 4.3 C 3.2 km/h
1189 30-11-2014 12:10:00 4.3 C 5.9 g/m*3 4.3 C 4.8 km/h
1190 30-11-2014 12:15:00 4.3 C 5.97 g/m*3 4.3 C 4.8 km/h
1191 30-11-2014 12:20:00 4.3 C 5.9 g/m*3 4.3 C 3.2 km/h
1192 30-11-2014 12:25:00 4.3 C 5.9 g/m*3 4.3 C 1.6 km/h
1193 30-11-2014 12:30:00 4.3 C 5.9 g/m*3 4.3 C 1.6 km/h
1194 30-11-2014 12:35:00 4.3 C 5.9 g/m*3 4.3 C 1.6 km/h
1195 30-11-2014 12:40:00 4.3 C 5.97 g/m*3 4.3 C 0 km/h
1196 30-11-2014 12:45:00 4.4 C 6.01 g/m*3 4.4 C 4.8 km/h
1197 30-11-2014 12:50:00 4.4 C 5.94 g/m*3 4.4 C 4.8 km/h
1198 30-11-2014 12:55:00 4.4 C 5.94 g/m*3 4.4 C 1.6 km/h
1199 30-11-2014 13:00:00 4.3 C 5.9 g/m*3 4.3 C 0 km/h
1200 30-11-2014 13:05:00 4.3 C 5.9 g/m*3 4.3 C 3.2 km/h
Sensor: Nr:Datum:Temp:Abs-Feuchte:Windchill:Wind:
Aussen-T/F 1201 30-11-2014 13:10:00 4.3 C 5.9 g/m*3 4.3 C 1.6 km/h
1202 30-11-2014 13:15:00 4.3 C 5.9 g/m*3 4.3 C 3.2 km/h
1203 30-11-2014 13:20:00 4.3 C 5.9 g/m*3 4.3 C 3.2 km/h
1204 30-11-2014 13:25:00 4.3 C 5.9 g/m*3 4.3 C 1.6 km/h
1205 30-11-2014 13:30:00 4.3 C 5.9 g/m*3 4.3 C 0 km/h
1206 30-11-2014 13:35:00 4.3 C 5.9 g/m*3 4.3 C 0 km/h
1207 30-11-2014 13:40:00 4.3 C 5.9 g/m*3 4.3 C 4.8 km/h
1208 30-11-2014 13:45:00 4.4 C 6.01 g/m*3 4.4 C 1.6 km/h
1209 30-11-2014 13:50:00 4.3 C 5.9 g/m*3 4.3 C 1.6 km/h
1210 30-11-2014 13:55:00 4.3 C 5.9 g/m*3 4.3 C 3.2 km/h
1211 30-11-2014 14:00:00 4.3 C 5.9 g/m*3 4.3 C 0 km/h
1212 30-11-2014 14:05:00 4.3 C 5.9 g/m*3 4.3 C 0 km/h
1213 30-11-2014 14:10:00 4.3 C 5.9 g/m*3 4.3 C 3.2 km/h
1214 30-11-2014 14:15:00 4.3 C 5.9 g/m*3 4.3 C 3.2 km/h
1215 30-11-2014 14:20:00 4.3 C 5.9 g/m*3 4.3 C 3.2 km/h
1216 30-11-2014 14:25:00 4.3 C 5.9 g/m*3 4.3 C 1.6 km/h
1217 30-11-2014 14:30:00 4.2 C 5.86 g/m*3 4.2 C 4.8 km/h
1218 30-11-2014 14:35:00 4.1 C 5.82 g/m*3 4.1 C 4.8 km/h
1219 30-11-2014 14:40:00 4.1 C 5.89 g/m*3 4.1 C 1.6 km/h
1220 30-11-2014 14:45:00 4.1 C 5.89 g/m*3 4.1 C 0 km/h
1221 30-11-2014 14:50:00 4.1 C 5.89 g/m*3 4.1 C 0 km/h
1222 30-11-2014 14:55:00 4.1 C 5.89 g/m*3 4.1 C 3.2 km/h
1223 30-11-2014 15:00:00 4.1 C 5.82 g/m*3 4.1 C 3.2 km/h
1224 30-11-2014 15:05:00 4.1 C 5.89 g/m*3 4.1 C 3.2 km/h
1225 30-11-2014 15:10:00 4.1 C 5.89 g/m*3 4.1 C 3.2 km/h
Sensor: Nr:Datum:Temp:Abs-Feuchte:Windchill:Wind:
Aussen-T/F 1226 30-11-2014 15:15:00 4.1 C 5.89 g/m*3 4.1 C 1.6 km/h
1227 30-11-2014 15:20:00 4.1 C 5.89 g/m*3 4.1 C 0 km/h
1228 30-11-2014 15:25:00 4.1 C 5.89 g/m*3 4.1 C 0 km/h
1229 30-11-2014 15:30:00 4.1 C 5.89 g/m*3 4.1 C 3.2 km/h
1230 30-11-2014 15:35:00 4.1 C 5.89 g/m*3 4.1 C 3.2 km/h
1231 30-11-2014 15:40:00 4.1 C 5.89 g/m*3 4.1 C 3.2 km/h
1232 30-11-2014 15:45:00 4.1 C 5.82 g/m*3 2.05 C 8.1 km/h
1233 30-11-2014 15:50:00 4 C 5.85 g/m*3 4 C 4.8 km/h
1234 30-11-2014 15:55:00 3.9 C 5.81 g/m*3 3.9 C 4.8 km/h
1235 30-11-2014 16:00:00 3.9 C 5.81 g/m*3 3.9 C 4.8 km/h
1236 30-11-2014 16:05:00 3.9 C 5.81 g/m*3 3.9 C 3.2 km/h
1237 30-11-2014 16:10:00 3.8 C 5.77 g/m*3 3.8 C 1.6 km/h
1238 30-11-2014 16:15:00 3.9 C 5.81 g/m*3 3.9 C 3.2 km/h
1239 30-11-2014 16:20:00 3.9 C 5.87 g/m*3 3.9 C 1.6 km/h
1240 30-11-2014 16:25:00 3.9 C 5.87 g/m*3 3.9 C 1.6 km/h
1241 30-11-2014 16:30:00 3.9 C 5.81 g/m*3 3.9 C 1.6 km/h
1242 30-11-2014 16:35:00 3.8 C 5.77 g/m*3 3.8 C 3.2 km/h
1243 30-11-2014 16:40:00 3.8 C 5.77 g/m*3 3.8 C 0 km/h
1244 30-11-2014 16:45:00 3.8 C 5.77 g/m*3 3.8 C 1.6 km/h
1245 30-11-2014 16:50:00 3.8 C 5.77 g/m*3 3.8 C 0 km/h
1246 30-11-2014 16:55:00 3.8 C 5.77 g/m*3 3.8 C 1.6 km/h
1247 30-11-2014 17:00:00 3.8 C 5.77 g/m*3 3.8 C 0 km/h
1248 30-11-2014 17:05:00 3.8 C 5.77 g/m*3 3.8 C 3.2 km/h
1249 30-11-2014 17:10:00 3.8 C 5.83 g/m*3 3.8 C 0 km/h
1250 30-11-2014 17:15:00 3.8 C 5.77 g/m*3 3.8 C 0 km/h
Sensor: Nr:Datum:Temp:Abs-Feuchte:Windchill:Wind:
Aussen-T/F 1251 30-11-2014 17:20:00 3.8 C 5.83 g/m*3 3.8 C 0 km/h
1252 30-11-2014 17:25:00 3.8 C 5.83 g/m*3 3.8 C 0 km/h
1253 30-11-2014 17:30:00 3.8 C 5.77 g/m*3 3.8 C 1.6 km/h
1254 30-11-2014 17:35:00 3.8 C 5.83 g/m*3 3.8 C 3.2 km/h
1255 30-11-2014 17:40:00 3.8 C 5.83 g/m*3 3.8 C 0 km/h
1256 30-11-2014 17:45:00 3.8 C 5.83 g/m*3 3.8 C 0 km/h
1257 30-11-2014 17:50:00 3.8 C 5.83 g/m*3 3.8 C 1.6 km/h
1258 30-11-2014 17:55:00 3.8 C 5.83 g/m*3 3.8 C 1.6 km/h
1259 30-11-2014 18:00:00 3.8 C 5.83 g/m*3 3.8 C 0 km/h
1260 30-11-2014 18:05:00 3.8 C 5.83 g/m*3 3.8 C 0 km/h
1261 30-11-2014 18:10:00 3.8 C 5.83 g/m*3 3.8 C 0 km/h
1262 30-11-2014 18:15:00 3.8 C 5.77 g/m*3 3.8 C 0 km/h
1263 30-11-2014 18:20:00 3.8 C 5.83 g/m*3 3.8 C 4.8 km/h
1264 30-11-2014 18:25:00 3.8 C 5.83 g/m*3 3.8 C 3.2 km/h
1265 30-11-2014 18:30:00 3.7 C 5.73 g/m*3 1.58 C 8.1 km/h
1266 30-11-2014 18:35:00 3.7 C 5.8 g/m*3 3.7 C 1.6 km/h
1267 30-11-2014 18:40:00 3.7 C 5.8 g/m*3 3.7 C 0 km/h
1268 30-11-2014 18:45:00 3.7 C 5.8 g/m*3 3.7 C 3.2 km/h
1269 30-11-2014 18:50:00 3.7 C 5.8 g/m*3 3.7 C 3.2 km/h
1270 30-11-2014 18:55:00 3.7 C 5.8 g/m*3 3.7 C 4.8 km/h
1271 30-11-2014 19:00:00 3.7 C 5.8 g/m*3 2.09 C 6.4 km/h
1272 30-11-2014 19:05:00 3.7 C 5.8 g/m*3 3.7 C 1.6 km/h
1273 30-11-2014 19:10:00 3.7 C 5.8 g/m*3 3.7 C 1.6 km/h
1274 30-11-2014 19:15:00 3.7 C 5.8 g/m*3 3.7 C 4.8 km/h
1275 30-11-2014 19:20:00 3.7 C 5.8 g/m*3 3.7 C 1.6 km/h
Sensor: Nr:Datum:Temp:Abs-Feuchte:Windchill:Wind:
Aussen-T/F 1276 30-11-2014 19:25:00 3.7 C 5.8 g/m*3 3.7 C 3.2 km/h
1277 30-11-2014 19:30:00 3.7 C 5.8 g/m*3 3.7 C 1.6 km/h
1278 30-11-2014 19:35:00 3.7 C 5.8 g/m*3 3.7 C 3.2 km/h
1279 30-11-2014 19:40:00 3.7 C 5.8 g/m*3 3.7 C 1.6 km/h
1280 30-11-2014 19:45:00 3.7 C 5.8 g/m*3 3.7 C 1.6 km/h
1281 30-11-2014 19:50:00 3.7 C 5.8 g/m*3 3.7 C 3.2 km/h
1282 30-11-2014 19:55:00 3.6 C 5.76 g/m*3 1.98 C 6.4 km/h
1283 30-11-2014 20:00:00 3.6 C 5.76 g/m*3 3.6 C 4.8 km/h
1284 30-11-2014 20:05:00 3.6 C 5.76 g/m*3 3.6 C 4.8 km/h
1285 30-11-2014 20:10:00 3.6 C 5.76 g/m*3 3.6 C 1.6 km/h
1286 30-11-2014 20:15:00 3.6 C 5.76 g/m*3 3.6 C 1.6 km/h
1287 30-11-2014 20:20:00 3.7 C 5.8 g/m*3 3.7 C 0 km/h
1288 30-11-2014 20:25:00 3.7 C 5.8 g/m*3 3.7 C 1.6 km/h
1289 30-11-2014 20:30:00 3.7 C 5.8 g/m*3 3.7 C 1.6 km/h
1290 30-11-2014 20:35:00 3.7 C 5.8 g/m*3 3.7 C 0 km/h
1291 30-11-2014 20:40:00 3.7 C 5.8 g/m*3 3.7 C 1.6 km/h
1292 30-11-2014 20:45:00 3.7 C 5.8 g/m*3 3.7 C 0 km/h
1293 30-11-2014 20:50:00 3.7 C 5.8 g/m*3 3.7 C 4.8 km/h
1294 30-11-2014 20:55:00 3.7 C 5.8 g/m*3 3.7 C 3.2 km/h
1295 30-11-2014 21:00:00 3.7 C 5.8 g/m*3 3.7 C 0 km/h
1296 30-11-2014 21:05:00 3.7 C 5.8 g/m*3 3.7 C 1.6 km/h
1297 30-11-2014 21:10:00 3.7 C 5.8 g/m*3 3.7 C 1.6 km/h
1298 30-11-2014 21:15:00 3.7 C 5.8 g/m*3 3.7 C 1.6 km/h
1299 30-11-2014 21:20:00 3.7 C 5.8 g/m*3 3.7 C 0 km/h
1300 30-11-2014 21:25:00 3.7 C 5.86 g/m*3 3.7 C 3.2 km/h
Sensor: Nr:Datum:Temp:Abs-Feuchte:Windchill:Wind:
Aussen-T/F 1301 30-11-2014 21:30:00 3.7 C 5.8 g/m*3 3.7 C 4.8 km/h
1302 30-11-2014 21:35:00 3.6 C 5.76 g/m*3 3.6 C 3.2 km/h
1303 30-11-2014 21:40:00 3.6 C 5.76 g/m*3 3.6 C 1.6 km/h
1304 30-11-2014 21:45:00 3.6 C 5.82 g/m*3 3.6 C 1.6 km/h
1305 30-11-2014 21:50:00 3.6 C 5.82 g/m*3 3.6 C 1.6 km/h
1306 30-11-2014 21:55:00 3.6 C 5.76 g/m*3 3.6 C 3.2 km/h
1307 30-11-2014 22:00:00 3.6 C 5.82 g/m*3 3.6 C 1.6 km/h
1308 30-11-2014 22:05:00 3.6 C 5.82 g/m*3 3.6 C 4.8 km/h
1309 30-11-2014 22:10:00 3.6 C 5.82 g/m*3 3.6 C 3.2 km/h
1310 30-11-2014 22:15:00 3.6 C 5.82 g/m*3 3.6 C 0 km/h
1311 30-11-2014 22:20:00 3.5 C 5.72 g/m*3 3.5 C 1.6 km/h
1312 30-11-2014 22:25:00 3.5 C 5.78 g/m*3 3.5 C 3.2 km/h
1313 30-11-2014 22:30:00 3.5 C 5.78 g/m*3 3.5 C 3.2 km/h
1314 30-11-2014 22:35:00 3.5 C 5.78 g/m*3 3.5 C 4.8 km/h
1315 30-11-2014 22:40:00 3.5 C 5.78 g/m*3 3.5 C 0 km/h
1316 30-11-2014 22:45:00 3.5 C 5.78 g/m*3 3.5 C 1.6 km/h
1317 30-11-2014 22:50:00 3.5 C 5.78 g/m*3 3.5 C 1.6 km/h
1318 30-11-2014 22:55:00 3.5 C 5.78 g/m*3 3.5 C 1.6 km/h
1319 30-11-2014 23:00:00 3.5 C 5.78 g/m*3 3.5 C 3.2 km/h
1320 30-11-2014 23:05:00 3.5 C 5.78 g/m*3 3.5 C 3.2 km/h
1321 30-11-2014 23:10:00 3.5 C 5.78 g/m*3 3.5 C 0 km/h
1322 30-11-2014 23:15:00 3.5 C 5.78 g/m*3 3.5 C 3.2 km/h
1323 30-11-2014 23:20:00 3.5 C 5.78 g/m*3 3.5 C 3.2 km/h
1324 30-11-2014 23:25:00 3.5 C 5.78 g/m*3 3.5 C 3.2 km/h
1325 30-11-2014 23:30:00 3.4 C 5.74 g/m*3 3.4 C 3.2 km/h
Sensor: Nr:Datum:Temp:Abs-Feuchte:Windchill:Wind:
Aussen-T/F 1326 30-11-2014 23:35:00 3.4 C 5.74 g/m*3 3.4 C 1.6 km/h
1327 30-11-2014 23:40:00 3.4 C 5.74 g/m*3 3.4 C 1.6 km/h
1328 30-11-2014 23:45:00 3.5 C 5.78 g/m*3 3.5 C 3.2 km/h
1329 30-11-2014 23:50:00 3.5 C 5.78 g/m*3 3.5 C 3.2 km/h
1330 30-11-2014 23:55:00 3.4 C 5.74 g/m*3 3.4 C 0 km/h
1331 01-12-2014 00:00:00 3.4 C 5.74 g/m*3 3.4 C 0 km/h
1332 01-12-2014 00:05:00 3.4 C 5.74 g/m*3 3.4 C 4.8 km/h
1333 01-12-2014 00:10:00 3.4 C 5.74 g/m*3 3.4 C 1.6 km/h
1334 01-12-2014 00:15:00 3.4 C 5.74 g/m*3 1.23 C 8.1 km/h
1335 01-12-2014 00:20:00 3.4 C 5.74 g/m*3 3.4 C 3.2 km/h
1336 01-12-2014 00:25:00 3.4 C 5.74 g/m*3 0.82 C 9.7 km/h
1337 01-12-2014 00:30:00 3.4 C 5.74 g/m*3 1.75 C 6.4 km/h
1338 01-12-2014 00:35:00 3.4 C 5.74 g/m*3 3.4 C 1.6 km/h
1339 01-12-2014 00:40:00 3.3 C 5.7 g/m*3 3.3 C 1.6 km/h
1340 01-12-2014 00:45:00 3.3 C 5.7 g/m*3 3.3 C 3.2 km/h
1341 01-12-2014 00:50:00 3.4 C 5.74 g/m*3 3.4 C 1.6 km/h
1342 01-12-2014 00:55:00 3.3 C 5.7 g/m*3 3.3 C 3.2 km/h
1343 01-12-2014 01:00:00 3.3 C 5.7 g/m*3 3.3 C 4.8 km/h
1344 01-12-2014 01:05:00 3.3 C 5.7 g/m*3 1.63 C 6.4 km/h
1345 01-12-2014 01:10:00 3.3 C 5.7 g/m*3 3.3 C 4.8 km/h
1346 01-12-2014 01:15:00 3.3 C 5.7 g/m*3 3.3 C 3.2 km/h
1347 01-12-2014 01:20:00 3.3 C 5.7 g/m*3 3.3 C 1.6 km/h
1348 01-12-2014 01:25:00 3.3 C 5.7 g/m*3 3.3 C 4.8 km/h
1349 01-12-2014 01:30:00 3.3 C 5.7 g/m*3 3.3 C 0 km/h
1350 01-12-2014 01:35:00 3.3 C 5.76 g/m*3 3.3 C 0 km/h
Sensor: Nr:Datum:Temp:Abs-Feuchte:Windchill:Wind:
Aussen-T/F 1351 01-12-2014 01:40:00 3.3 C 5.76 g/m*3 3.3 C 1.6 km/h
1352 01-12-2014 01:45:00 3.3 C 5.76 g/m*3 3.3 C 3.2 km/h
1353 01-12-2014 01:50:00 3.3 C 5.76 g/m*3 3.3 C 3.2 km/h
1354 01-12-2014 01:55:00 3.3 C 5.76 g/m*3 3.3 C 4.8 km/h
1355 01-12-2014 02:00:00 3.3 C 5.76 g/m*3 3.3 C 1.6 km/h
1356 01-12-2014 02:05:00 3.3 C 5.76 g/m*3 3.3 C 1.6 km/h
1357 01-12-2014 02:10:00 3.3 C 5.76 g/m*3 3.3 C 0 km/h
1358 01-12-2014 02:15:00 3.3 C 5.76 g/m*3 3.3 C 0 km/h
1359 01-12-2014 02:20:00 3.3 C 5.76 g/m*3 3.3 C 1.6 km/h
1360 01-12-2014 02:25:00 3.3 C 5.76 g/m*3 3.3 C 0 km/h
1361 01-12-2014 02:30:00 3.3 C 5.76 g/m*3 3.3 C 0 km/h
1362 01-12-2014 02:35:00 3.3 C 5.76 g/m*3 3.3 C 0 km/h
1363 01-12-2014 02:40:00 3.3 C 5.76 g/m*3 3.3 C 0 km/h
1364 01-12-2014 02:45:00 3.3 C 5.76 g/m*3 3.3 C 0 km/h
1365 01-12-2014 02:50:00 3.3 C 5.76 g/m*3 3.3 C 0 km/h
1366 01-12-2014 02:55:00 3.3 C 5.76 g/m*3 3.3 C 0 km/h
1367 01-12-2014 03:00:00 3.3 C 5.76 g/m*3 3.3 C 0 km/h
1368 01-12-2014 03:05:00 3.3 C 5.76 g/m*3 3.3 C 4.8 km/h
1369 01-12-2014 03:10:00 3.3 C 5.76 g/m*3 3.3 C 1.6 km/h
1370 01-12-2014 03:15:00 3.3 C 5.76 g/m*3 3.3 C 0 km/h
1371 01-12-2014 03:20:00 3.4 C 5.8 g/m*3 3.4 C 0 km/h
1372 01-12-2014 03:25:00 3.4 C 5.8 g/m*3 3.4 C 1.6 km/h
1373 01-12-2014 03:30:00 3.4 C 5.8 g/m*3 3.4 C 1.6 km/h
1374 01-12-2014 03:35:00 3.4 C 5.8 g/m*3 3.4 C 0 km/h
1375 01-12-2014 03:40:00 3.4 C 5.8 g/m*3 3.4 C 0 km/h
Sensor: Nr:Datum:Temp:Abs-Feuchte:Windchill:Wind:
Aussen-T/F 1376 01-12-2014 03:45:00 3.5 C 5.84 g/m*3 3.5 C 0 km/h
1377 01-12-2014 03:50:00 3.5 C 5.84 g/m*3 3.5 C 3.2 km/h
1378 01-12-2014 03:55:00 3.5 C 5.84 g/m*3 3.5 C 4.8 km/h
1379 01-12-2014 04:00:00 3.5 C 5.84 g/m*3 3.5 C 0 km/h
1380 01-12-2014 04:05:00 3.6 C 5.88 g/m*3 3.6 C 4.8 km/h
1381 01-12-2014 04:10:00 3.6 C 5.88 g/m*3 3.6 C 3.2 km/h
1382 01-12-2014 04:15:00 3.6 C 5.88 g/m*3 3.6 C 4.8 km/h
1383 01-12-2014 04:20:00 3.6 C 5.88 g/m*3 3.6 C 4.8 km/h
1384 01-12-2014 04:25:00 3.6 C 5.88 g/m*3 3.6 C 0 km/h
1385 01-12-2014 04:30:00 3.7 C 5.92 g/m*3 3.7 C 0 km/h
1386 01-12-2014 04:35:00 3.6 C 5.88 g/m*3 3.6 C 3.2 km/h
1387 01-12-2014 04:40:00 3.7 C 5.92 g/m*3 3.7 C 1.6 km/h
1388 01-12-2014 04:45:00 3.7 C 5.92 g/m*3 3.7 C 3.2 km/h
1389 01-12-2014 04:50:00 3.7 C 5.86 g/m*3 3.7 C 1.6 km/h
1390 01-12-2014 04:55:00 3.7 C 5.86 g/m*3 3.7 C 1.6 km/h
1391 01-12-2014 05:00:00 3.8 C 5.9 g/m*3 3.8 C 0 km/h
1392 01-12-2014 05:05:00 3.8 C 5.9 g/m*3 3.8 C 0 km/h
1393 01-12-2014 05:10:00 3.8 C 5.9 g/m*3 3.8 C 0 km/h
1394 01-12-2014 05:15:00 3.8 C 5.9 g/m*3 3.8 C 0 km/h
1395 01-12-2014 05:20:00 3.8 C 5.9 g/m*3 3.8 C 0 km/h
1396 01-12-2014 05:25:00 3.8 C 5.9 g/m*3 3.8 C 0 km/h
1397 01-12-2014 05:30:00 3.8 C 5.9 g/m*3 3.8 C 1.6 km/h
1398 01-12-2014 05:35:00 3.8 C 5.9 g/m*3 3.8 C 1.6 km/h
1399 01-12-2014 05:40:00 3.8 C 5.9 g/m*3 3.8 C 3.2 km/h
1400 01-12-2014 05:45:00 3.9 C 5.94 g/m*3 3.9 C 1.6 km/h
Sensor: Nr:Datum:Temp:Abs-Feuchte:Windchill:Wind:
Aussen-T/F 1401 01-12-2014 05:50:00 3.9 C 5.94 g/m*3 3.9 C 1.6 km/h
1402 01-12-2014 05:55:00 4 C 5.98 g/m*3 4 C 3.2 km/h
1403 01-12-2014 06:00:00 4 C 5.91 g/m*3 4 C 3.2 km/h
1404 01-12-2014 06:05:00 4.1 C 5.95 g/m*3 4.1 C 3.2 km/h
1405 01-12-2014 06:10:00 4.1 C 5.95 g/m*3 4.1 C 3.2 km/h
1406 01-12-2014 06:15:00 4.1 C 5.95 g/m*3 2.55 C 6.4 km/h
1407 01-12-2014 06:20:00 4.1 C 5.95 g/m*3 2.55 C 6.4 km/h
1408 01-12-2014 06:25:00 4.1 C 5.95 g/m*3 4.1 C 4.8 km/h
1409 01-12-2014 06:30:00 4.1 C 5.95 g/m*3 4.1 C 4.8 km/h
1410 01-12-2014 06:35:00 4.2 C 5.99 g/m*3 4.2 C 3.2 km/h
1411 01-12-2014 06:40:00 4.2 C 5.99 g/m*3 4.2 C 1.6 km/h
1412 01-12-2014 06:45:00 4.2 C 5.93 g/m*3 2.17 C 8.1 km/h
1413 01-12-2014 06:50:00 4.2 C 5.93 g/m*3 2.67 C 6.4 km/h
1414 01-12-2014 06:55:00 4.2 C 5.93 g/m*3 4.2 C 4.8 km/h
1415 01-12-2014 07:00:00 4.2 C 5.93 g/m*3 4.2 C 4.8 km/h
1416 01-12-2014 07:05:00 4.2 C 5.93 g/m*3 1.43 C 11.3 km/h
1417 01-12-2014 07:10:00 4.2 C 5.93 g/m*3 4.2 C 4.8 km/h
1418 01-12-2014 07:15:00 4.2 C 5.93 g/m*3 4.2 C 4.8 km/h
1419 01-12-2014 07:20:00 4.2 C 5.93 g/m*3 4.2 C 4.8 km/h
1420 01-12-2014 07:25:00 4.2 C 5.93 g/m*3 2.17 C 8.1 km/h
1421 01-12-2014 07:30:00 4.2 C 5.93 g/m*3 2.17 C 8.1 km/h
1422 01-12-2014 07:35:00 4.2 C 5.93 g/m*3 2.67 C 6.4 km/h
1423 01-12-2014 07:40:00 4.2 C 5.93 g/m*3 4.2 C 3.2 km/h
1424 01-12-2014 07:45:00 4.1 C 5.89 g/m*3 2.05 C 8.1 km/h
1425 01-12-2014 07:50:00 4.1 C 5.89 g/m*3 1 C 12.9 km/h
Sensor: Nr:Datum:Temp:Abs-Feuchte:Windchill:Wind:
Aussen-T/F 1426 01-12-2014 07:55:00 4.1 C 5.89 g/m*3 2.05 C 8.1 km/h
1427 01-12-2014 08:00:00 4.1 C 5.89 g/m*3 4.1 C 4.8 km/h
1428 01-12-2014 08:05:00 4.1 C 5.89 g/m*3 4.1 C 0 km/h
1429 01-12-2014 08:10:00 4.1 C 5.89 g/m*3 4.1 C 1.6 km/h
1430 01-12-2014 08:15:00 4 C 5.85 g/m*3 4 C 3.2 km/h
1431 01-12-2014 08:20:00 4 C 5.85 g/m*3 2.44 C 6.4 km/h
1432 01-12-2014 08:25:00 4 C 5.85 g/m*3 4 C 4.8 km/h
1433 01-12-2014 08:30:00 4 C 5.85 g/m*3 1.18 C 11.3 km/h
1434 01-12-2014 08:35:00 3.9 C 5.81 g/m*3 2.32 C 6.4 km/h
1435 01-12-2014 08:40:00 3.9 C 5.75 g/m*3 3.9 C 4.8 km/h
1436 01-12-2014 08:45:00 3.9 C 5.75 g/m*3 2.32 C 6.4 km/h
1437 01-12-2014 08:50:00 3.9 C 5.75 g/m*3 1.06 C 11.3 km/h
1438 01-12-2014 08:55:00 3.9 C 5.75 g/m*3 1.06 C 11.3 km/h
1439 01-12-2014 09:00:00 3.8 C 5.71 g/m*3 0.63 C 12.9 km/h
1440 01-12-2014 09:05:00 3.8 C 5.71 g/m*3 1.29 C 9.7 km/h
1441 01-12-2014 09:10:00 3.8 C 5.71 g/m*3 1.29 C 9.7 km/h
1442 01-12-2014 09:15:00 3.8 C 5.71 g/m*3 0.63 C 12.9 km/h
1443 01-12-2014 09:20:00 3.7 C 5.67 g/m*3 0.23 C 14.5 km/h
1444 01-12-2014 09:25:00 3.7 C 5.67 g/m*3 0.23 C 14.5 km/h
1445 01-12-2014 09:30:00 3.7 C 5.67 g/m*3 0.51 C 12.9 km/h
1446 01-12-2014 09:35:00 3.7 C 5.67 g/m*3 0.51 C 12.9 km/h
1447 01-12-2014 09:40:00 3.7 C 5.67 g/m*3 0.51 C 12.9 km/h
1448 01-12-2014 09:45:00 3.7 C 5.67 g/m*3 1.18 C 9.7 km/h
1449 01-12-2014 09:50:00 3.7 C 5.67 g/m*3 1.18 C 9.7 km/h
1450 01-12-2014 09:55:00 3.7 C 5.67 g/m*3 1.18 C 9.7 km/h
Sensor: Nr:Datum:Temp:Abs-Feuchte:Windchill:Wind:
Aussen-T/F 1451 01-12-2014 10:00:00 3.7 C 5.61 g/m*3 1.18 C 9.7 km/h
1452 01-12-2014 10:05:00 3.8 C 5.65 g/m*3 1.29 C 9.7 km/h
1453 01-12-2014 10:10:00 3.7 C 5.61 g/m*3 1.58 C 8.1 km/h
1454 01-12-2014 10:15:00 3.7 C 5.61 g/m*3 1.18 C 9.7 km/h
1455 01-12-2014 10:20:00 3.8 C 5.65 g/m*3 2.21 C 6.4 km/h
1456 01-12-2014 10:25:00 3.8 C 5.65 g/m*3 0.94 C 11.3 km/h
1457 01-12-2014 10:30:00 3.8 C 5.65 g/m*3 0.63 C 12.9 km/h
1458 01-12-2014 10:35:00 3.8 C 5.65 g/m*3 1.7 C 8.1 km/h
1459 01-12-2014 10:40:00 3.8 C 5.65 g/m*3 1.7 C 8.1 km/h
1460 01-12-2014 10:45:00 3.8 C 5.65 g/m*3 2.21 C 6.4 km/h
1461 01-12-2014 10:50:00 3.8 C 5.65 g/m*3 0.94 C 11.3 km/h
1462 01-12-2014 10:55:00 3.9 C 5.68 g/m*3 0.75 C 12.9 km/h
1463 01-12-2014 11:00:00 3.9 C 5.68 g/m*3 1.06 C 11.3 km/h
1464 01-12-2014 11:05:00 3.9 C 5.68 g/m*3 0.75 C 12.9 km/h
1465 01-12-2014 11:10:00 3.9 C 5.68 g/m*3 1.41 C 9.7 km/h
1466 01-12-2014 11:15:00 3.9 C 5.62 g/m*3 1.06 C 11.3 km/h
1467 01-12-2014 11:20:00 3.9 C 5.62 g/m*3 0.75 C 12.9 km/h
1468 01-12-2014 11:25:00 3.9 C 5.62 g/m*3 1.06 C 11.3 km/h
1469 01-12-2014 11:30:00 3.8 C 5.58 g/m*3 0.94 C 11.3 km/h
1470 01-12-2014 11:35:00 3.9 C 5.62 g/m*3 0.75 C 12.9 km/h
1471 01-12-2014 11:40:00 3.8 C 5.58 g/m*3 0.94 C 11.3 km/h
1472 01-12-2014 11:45:00 3.9 C 5.62 g/m*3 1.41 C 9.7 km/h
1473 01-12-2014 11:50:00 3.8 C 5.58 g/m*3 0.94 C 11.3 km/h
1474 01-12-2014 11:55:00 3.8 C 5.58 g/m*3 0.63 C 12.9 km/h
1475 01-12-2014 12:00:00 3.8 C 5.58 g/m*3 0.35 C 14.5 km/h
Sensor: Nr:Datum:Temp:Abs-Feuchte:Windchill:Wind:
Aussen-T/F 1476 01-12-2014 12:05:00 3.8 C 5.58 g/m*3 1.29 C 9.7 km/h
1477 01-12-2014 12:10:00 3.8 C 5.58 g/m*3 0.94 C 11.3 km/h
1478 01-12-2014 12:15:00 3.8 C 5.58 g/m*3 0.35 C 14.5 km/h
1479 01-12-2014 12:20:00 3.8 C 5.58 g/m*3 1.29 C 9.7 km/h
1480 01-12-2014 12:25:00 3.8 C 5.58 g/m*3 1.7 C 8.1 km/h
1481 01-12-2014 12:30:00 3.8 C 5.65 g/m*3 0.94 C 11.3 km/h
1482 01-12-2014 12:35:00 3.8 C 5.58 g/m*3 1.7 C 8.1 km/h
1483 01-12-2014 12:40:00 3.8 C 5.65 g/m*3 0.94 C 11.3 km/h
1484 01-12-2014 12:45:00 3.8 C 5.58 g/m*3 2.21 C 6.4 km/h
1485 01-12-2014 12:50:00 3.8 C 5.58 g/m*3 1.7 C 8.1 km/h
1486 01-12-2014 12:55:00 3.8 C 5.58 g/m*3 1.29 C 9.7 km/h
1487 01-12-2014 13:00:00 3.8 C 5.65 g/m*3 3.8 C 3.2 km/h
1488 01-12-2014 13:05:00 3.8 C 5.65 g/m*3 3.8 C 0 km/h
1489 01-12-2014 13:10:00 3.8 C 5.65 g/m*3 3.8 C 1.6 km/h
1490 01-12-2014 13:15:00 3.8 C 5.65 g/m*3 3.8 C 4.8 km/h
1491 01-12-2014 13:20:00 3.8 C 5.65 g/m*3 3.8 C 3.2 km/h
1492 01-12-2014 13:25:00 3.8 C 5.65 g/m*3 3.8 C 3.2 km/h
1493 01-12-2014 13:30:00 3.8 C 5.65 g/m*3 3.8 C 3.2 km/h
1494 01-12-2014 13:35:00 3.9 C 5.68 g/m*3 3.9 C 3.2 km/h
1495 01-12-2014 13:40:00 3.9 C 5.68 g/m*3 2.32 C 6.4 km/h
1496 01-12-2014 13:45:00 3.9 C 5.68 g/m*3 3.9 C 4.8 km/h
1497 01-12-2014 13:50:00 3.8 C 5.65 g/m*3 1.29 C 9.7 km/h
1498 01-12-2014 13:55:00 3.8 C 5.65 g/m*3 3.8 C 3.2 km/h
1499 01-12-2014 14:00:00 3.8 C 5.65 g/m*3 2.21 C 6.4 km/h
1500 01-12-2014 14:05:00 3.7 C 5.61 g/m*3 3.7 C 0 km/h
Sensor: Nr:Datum:Temp:Abs-Feuchte:Windchill:Wind:
Aussen-T/F 1501 01-12-2014 14:10:00 3.7 C 5.61 g/m*3 3.7 C 4.8 km/h
1502 01-12-2014 14:15:00 3.7 C 5.61 g/m*3 3.7 C 4.8 km/h
1503 01-12-2014 14:20:00 3.7 C 5.67 g/m*3 3.7 C 4.8 km/h
1504 01-12-2014 14:25:00 3.7 C 5.67 g/m*3 3.7 C 3.2 km/h
1505 01-12-2014 14:30:00 3.7 C 5.67 g/m*3 2.09 C 6.4 km/h
1506 01-12-2014 14:35:00 3.7 C 5.61 g/m*3 2.09 C 6.4 km/h
1507 01-12-2014 14:40:00 3.7 C 5.61 g/m*3 0.51 C 12.9 km/h
1508 01-12-2014 14:45:00 3.6 C 5.57 g/m*3 0.7 C 11.3 km/h
1509 01-12-2014 14:50:00 3.6 C 5.57 g/m*3 1.98 C 6.4 km/h
1510 01-12-2014 14:55:00 3.6 C 5.57 g/m*3 0.39 C 12.9 km/h
1511 01-12-2014 15:00:00 3.5 C 5.53 g/m*3 1.34 C 8.1 km/h
1512 01-12-2014 15:05:00 3.4 C 5.44 g/m*3 0.82 C 9.7 km/h
1513 01-12-2014 15:10:00 3.4 C 5.5 g/m*3 1.23 C 8.1 km/h
1514 01-12-2014 15:15:00 3.4 C 5.5 g/m*3 0.82 C 9.7 km/h
1515 01-12-2014 15:20:00 3.4 C 5.5 g/m*3 0.82 C 9.7 km/h
1516 01-12-2014 15:25:00 3.4 C 5.5 g/m*3 1.75 C 6.4 km/h
1517 01-12-2014 15:30:00 3.4 C 5.5 g/m*3 1.23 C 8.1 km/h
1518 01-12-2014 15:35:00 3.3 C 5.46 g/m*3 0.7 C 9.7 km/h
1519 01-12-2014 15:40:00 3.3 C 5.46 g/m*3 3.3 C 4.8 km/h
1520 01-12-2014 15:45:00 3.3 C 5.46 g/m*3 1.63 C 6.4 km/h
1521 01-12-2014 15:50:00 3.3 C 5.46 g/m*3 3.3 C 3.2 km/h
1522 01-12-2014 15:55:00 3.3 C 5.46 g/m*3 3.3 C 4.8 km/h
1523 01-12-2014 16:00:00 3.3 C 5.46 g/m*3 3.3 C 4.8 km/h
1524 01-12-2014 16:05:00 3.2 C 5.42 g/m*3 0.22 C 11.3 km/h
1525 01-12-2014 16:10:00 3.2 C 5.36 g/m*3 0.58 C 9.7 km/h
Sensor: Nr:Datum:Temp:Abs-Feuchte:Windchill:Wind:
Aussen-T/F 1526 01-12-2014 16:15:00 3.2 C 5.36 g/m*3 0.22 C 11.3 km/h
1527 01-12-2014 16:20:00 3.2 C 5.36 g/m*3 0.99 C 8.1 km/h
1528 01-12-2014 16:25:00 3.2 C 5.36 g/m*3 1.51 C 6.4 km/h
1529 01-12-2014 16:30:00 3.2 C 5.36 g/m*3 3.2 C 3.2 km/h
1530 01-12-2014 16:35:00 3.2 C 5.36 g/m*3 3.2 C 1.6 km/h
1531 01-12-2014 16:40:00 3.2 C 5.36 g/m*3 3.2 C 0 km/h
1532 01-12-2014 16:45:00 3.2 C 5.36 g/m*3 3.2 C 3.2 km/h
1533 01-12-2014 16:50:00 3.1 C 5.33 g/m*3 3.1 C 3.2 km/h
1534 01-12-2014 16:55:00 3.2 C 5.36 g/m*3 3.2 C 0 km/h
1535 01-12-2014 17:00:00 3.2 C 5.36 g/m*3 0.58 C 9.7 km/h
1536 01-12-2014 17:05:00 3.2 C 5.36 g/m*3 0.99 C 8.1 km/h
1537 01-12-2014 17:10:00 3.1 C 5.33 g/m*3 0.1 C 11.3 km/h
1538 01-12-2014 17:15:00 3.1 C 5.33 g/m*3 3.1 C 4.8 km/h
1539 01-12-2014 17:20:00 3.1 C 5.33 g/m*3 3.1 C 1.6 km/h
1540 01-12-2014 17:25:00 3.1 C 5.33 g/m*3 0.87 C 8.1 km/h
1541 01-12-2014 17:30:00 3 C 5.29 g/m*3 0.76 C 8.1 km/h
1542 01-12-2014 17:35:00 2.9 C 5.26 g/m*3 -0.14 C 11.3 km/h
1543 01-12-2014 17:40:00 2.9 C 5.26 g/m*3 -0.14 C 11.3 km/h
1544 01-12-2014 17:45:00 2.8 C 5.22 g/m*3 2.8 C 3.2 km/h
1545 01-12-2014 17:50:00 2.8 C 5.22 g/m*3 2.8 C 4.8 km/h
1546 01-12-2014 17:55:00 2.8 C 5.22 g/m*3 2.8 C 4.8 km/h
1547 01-12-2014 18:00:00 2.8 C 5.22 g/m*3 2.8 C 1.6 km/h
1548 01-12-2014 18:05:00 2.8 C 5.22 g/m*3 2.8 C 0 km/h
1549 01-12-2014 18:10:00 2.8 C 5.22 g/m*3 2.8 C 4.8 km/h
1550 01-12-2014 18:15:00 2.8 C 5.28 g/m*3 2.8 C 1.6 km/h
Sensor: Nr:Datum:Temp:Abs-Feuchte:Windchill:Wind:
Aussen-T/F 1551 01-12-2014 18:20:00 2.7 C 5.19 g/m*3 0.94 C 6.4 km/h
1552 01-12-2014 18:25:00 2.7 C 5.19 g/m*3 2.7 C 4.8 km/h
1553 01-12-2014 18:30:00 2.7 C 5.19 g/m*3 2.7 C 1.6 km/h
1554 01-12-2014 18:35:00 2.7 C 5.19 g/m*3 2.7 C 4.8 km/h
1555 01-12-2014 18:40:00 2.7 C 5.24 g/m*3 2.7 C 1.6 km/h
1556 01-12-2014 18:45:00 2.7 C 5.19 g/m*3 2.7 C 3.2 km/h
1557 01-12-2014 18:50:00 2.7 C 5.19 g/m*3 2.7 C 4.8 km/h
1558 01-12-2014 18:55:00 2.7 C 5.19 g/m*3 2.7 C 1.6 km/h
1559 01-12-2014 19:00:00 2.7 C 5.19 g/m*3 2.7 C 3.2 km/h
1560 01-12-2014 19:05:00 2.7 C 5.19 g/m*3 2.7 C 4.8 km/h
1561 01-12-2014 19:10:00 2.7 C 5.24 g/m*3 2.7 C 1.6 km/h
1562 01-12-2014 19:15:00 2.7 C 5.24 g/m*3 2.7 C 3.2 km/h
1563 01-12-2014 19:20:00 2.7 C 5.24 g/m*3 0.94 C 6.4 km/h
1564 01-12-2014 19:25:00 2.7 C 5.24 g/m*3 2.7 C 0 km/h
1565 01-12-2014 19:30:00 2.6 C 5.21 g/m*3 2.6 C 3.2 km/h
1566 01-12-2014 19:35:00 2.6 C 5.21 g/m*3 2.6 C 1.6 km/h
1567 01-12-2014 19:40:00 2.6 C 5.21 g/m*3 2.6 C 1.6 km/h
1568 01-12-2014 19:45:00 2.6 C 5.21 g/m*3 2.6 C 3.2 km/h
1569 01-12-2014 19:50:00 2.7 C 5.24 g/m*3 2.7 C 0 km/h
1570 01-12-2014 19:55:00 2.6 C 5.21 g/m*3 2.6 C 1.6 km/h
1571 01-12-2014 20:00:00 2.6 C 5.21 g/m*3 2.6 C 4.8 km/h
1572 01-12-2014 20:05:00 2.6 C 5.21 g/m*3 2.6 C 1.6 km/h
1573 01-12-2014 20:10:00 2.6 C 5.21 g/m*3 2.6 C 3.2 km/h
1574 01-12-2014 20:15:00 2.6 C 5.21 g/m*3 2.6 C 1.6 km/h
1575 01-12-2014 20:20:00 2.6 C 5.21 g/m*3 2.6 C 0 km/h
Sensor: Nr:Datum:Temp:Abs-Feuchte:Windchill:Wind:
Aussen-T/F 1576 01-12-2014 20:25:00 2.6 C 5.21 g/m*3 2.6 C 0 km/h
1577 01-12-2014 20:30:00 2.6 C 5.21 g/m*3 2.6 C 0 km/h
1578 01-12-2014 20:35:00 2.6 C 5.21 g/m*3 2.6 C 0 km/h
1579 01-12-2014 20:40:00 2.6 C 5.21 g/m*3 2.6 C 0 km/h
1580 01-12-2014 20:45:00 2.6 C 5.21 g/m*3 2.6 C 0 km/h
1581 01-12-2014 20:50:00 2.5 C 5.17 g/m*3 2.5 C 1.6 km/h
1582 01-12-2014 20:55:00 2.6 C 5.21 g/m*3 2.6 C 1.6 km/h
1583 01-12-2014 21:00:00 2.6 C 5.21 g/m*3 2.6 C 1.6 km/h
1584 01-12-2014 21:05:00 2.5 C 5.17 g/m*3 2.5 C 0 km/h
1585 01-12-2014 21:10:00 2.5 C 5.17 g/m*3 2.5 C 1.6 km/h
1586 01-12-2014 21:15:00 2.4 C 5.14 g/m*3 2.4 C 4.8 km/h
1587 01-12-2014 21:20:00 2.4 C 5.08 g/m*3 2.4 C 3.2 km/h
1588 01-12-2014 21:25:00 2.4 C 5.14 g/m*3 2.4 C 3.2 km/h
1589 01-12-2014 21:30:00 2.4 C 5.14 g/m*3 2.4 C 4.8 km/h
1590 01-12-2014 21:35:00 2.4 C 5.14 g/m*3 2.4 C 1.6 km/h
1591 01-12-2014 21:40:00 2.3 C 5.1 g/m*3 2.3 C 1.6 km/h
1592 01-12-2014 21:45:00 2.3 C 5.1 g/m*3 2.3 C 1.6 km/h
1593 01-12-2014 21:50:00 2.3 C 5.05 g/m*3 2.3 C 3.2 km/h
1594 01-12-2014 21:55:00 2.3 C 5.05 g/m*3 2.3 C 0 km/h
1595 01-12-2014 22:00:00 2.3 C 5.05 g/m*3 2.3 C 1.6 km/h
1596 01-12-2014 22:05:00 2.3 C 5.1 g/m*3 2.3 C 0 km/h
1597 01-12-2014 22:10:00 2.3 C 5.05 g/m*3 2.3 C 1.6 km/h
1598 01-12-2014 22:15:00 2.3 C 5.1 g/m*3 2.3 C 3.2 km/h
1599 01-12-2014 22:20:00 2.2 C 5.01 g/m*3 2.2 C 3.2 km/h
1600 01-12-2014 22:25:00 2.2 C 5.01 g/m*3 2.2 C 0 km/h
Sensor: Nr:Datum:Temp:Abs-Feuchte:Windchill:Wind:
Aussen-T/F 1601 01-12-2014 22:30:00 2.2 C 5.01 g/m*3 2.2 C 0 km/h
1602 01-12-2014 22:35:00 2.2 C 5.01 g/m*3 2.2 C 0 km/h
1603 01-12-2014 22:40:00 2.1 C 4.98 g/m*3 2.1 C 1.6 km/h
1604 01-12-2014 22:45:00 2.1 C 4.98 g/m*3 2.1 C 3.2 km/h
1605 01-12-2014 22:50:00 2.1 C 4.98 g/m*3 2.1 C 3.2 km/h
1606 01-12-2014 22:55:00 2.1 C 4.98 g/m*3 0.24 C 6.4 km/h
1607 01-12-2014 23:00:00 2.1 C 4.98 g/m*3 2.1 C 1.6 km/h
1608 01-12-2014 23:05:00 2.1 C 4.98 g/m*3 2.1 C 1.6 km/h
1609 01-12-2014 23:10:00 2.1 C 4.98 g/m*3 2.1 C 1.6 km/h
1610 01-12-2014 23:15:00 2.1 C 4.98 g/m*3 2.1 C 3.2 km/h
1611 01-12-2014 23:20:00 2.1 C 4.98 g/m*3 2.1 C 3.2 km/h
1612 01-12-2014 23:25:00 2.1 C 5.04 g/m*3 -0.3 C 8.1 km/h
1613 01-12-2014 23:30:00 2 C 4.95 g/m*3 0.13 C 6.4 km/h
1614 01-12-2014 23:35:00 2 C 4.95 g/m*3 2 C 3.2 km/h
1615 01-12-2014 23:40:00 2 C 4.95 g/m*3 -0.42 C 8.1 km/h
1616 01-12-2014 23:45:00 1.9 C 4.91 g/m*3 -0.54 C 8.1 km/h
1617 01-12-2014 23:50:00 1.9 C 4.91 g/m*3 0.01 C 6.4 km/h
1618 01-12-2014 23:55:00 1.9 C 4.91 g/m*3 1.9 C 4.8 km/h

Legende:
   Min
   Max


Maximal/Minimal-Werte vom 26.11.2014 - 01.12.2014

Sensor Min Max Avg
Temp
(Aussen-T/F)
1.9 °C
01-12-2014  23:45:00
7.6 °C
27-11-2014  13:45:00
4.66 °C
Abs-Feuchte
(Aussen-T/F)
4.91 g/m*3
01-12-2014  23:45:00
7.5 g/m*3
28-11-2014  12:10:00
6.06 g/m*3
Windchill
(Aussen-T/F)
-0.54 C
01-12-2014  23:45:00
7.6 C
27-11-2014  13:45:00
4.39 C

Die Daten stammen von einer Davis Vantage Pro 2 Wetter-Station und werden unter Linux mit der Software wview2wettercgi und aufbereitet. Alle Angaben erfolgen ohne Gewähr für ihre Vollständigkeit oder Richtigkeit.
Kontakt: Rainer Krienke krienke@uni-koblenz.de . Meine Webseiten an der Uni Koblenz oder privat.
Version: $Revision: 0.78 $